M I D A S
Marine Information and Data Acquisition System
Tripno 1099 of the Zeeleeuw from 2006-03-30 06:32:14 to 2006-03-30 10:47:52
Back to CruiseResearch ActivitiesStationsMapUnderway DataData graphs

EquipmentUnitsComment
TimeDGPSUTC
LatitudeDGPSDM.mWGS84
LongitudeDGPSDM.mWGS84
TemperatureSBE03/SBE38deg celciusITS90
ConductivitySBE21S/mITS90
SalinitySBE21 Practical Salinity Units
ChlorophylAChelsea fluorimeterg/lCalibrated in Aceton
Missing or incorrect values are displayed as -999
Sea surface data collected by the RV Zeeleeuw from 2006-03-30 06:32:05 to 2006-03-30 11:00:34
                                                                                    Next 1000 lines
Time Latitude Longitude Temperature Conductivity Salinity ChlorophylA
2006-03-30 06:32:15 51°13.599 2°56.09 -999 2.994683 28.945047 16.309418
2006-03-30 06:32:20 51°13.6 2°56.088 -999 2.991787 28.918037 16.376836
2006-03-30 06:32:25 51°13.601 2°56.085 -999 2.959415 28.550524 16.511674
2006-03-30 06:32:30 51°13.602 2°56.083 -999 2.899641 27.878997 16.680221
2006-03-30 06:32:35 51°13.603 2°56.08 -999 2.899641 27.878997 16.680221
2006-03-30 06:32:40 51°13.604 2°56.076 -999 2.835429 27.163446 16.815059
2006-03-30 06:32:46 51°13.606 2°56.072 -999 2.810201 26.879994 16.882477
2006-03-30 06:32:51 51°13.607 2°56.068 -999 2.812373 26.899266 16.916187
2006-03-30 06:32:56 51°13.608 2°56.064 -999 2.813717 26.911985 17.084734
2006-03-30 06:33:00 51°13.609 2°56.061 -999 2.818576 26.965359 17.455537
2006-03-30 06:33:06 51°13.611 2°56.056 -999 2.829535 27.090341 17.590375
2006-03-30 06:33:11 51°13.613 2°56.051 -999 2.829535 27.090341 17.590375
2006-03-30 06:33:16 51°13.615 2°56.046 -999 2.844424 27.251844 17.657794
2006-03-30 06:33:20 51°13.616 2°56.042 -999 2.846699 27.284645 17.691503
2006-03-30 06:33:25 51°13.618 2°56.037 -999 2.859727 27.421567 17.691503
2006-03-30 06:33:31 51°13.62 2°56.03 -999 2.866448 27.499256 17.691503
2006-03-30 06:33:36 51°13.621 2°56.024 -999 2.866034 27.49562 17.691503
2006-03-30 06:33:40 51°13.623 2°56.019 -999 2.866034 27.49562 17.691503
2006-03-30 06:33:46 51°13.625 2°56.011 -999 2.865414 27.489797 17.691503
2006-03-30 06:33:51 51°13.627 2°56.003 -999 2.864277 27.479982 17.691503
2006-03-30 06:33:56 51°13.628 2°55.997 -999 2.862312 27.46068 17.691503
2006-03-30 06:34:00 51°13.629 2°55.992 -999 2.857349 27.406729 17.725212
2006-03-30 06:34:06 51°13.631 2°55.985 -999 2.857349 27.406729 17.725212
2006-03-30 06:34:10 51°13.632 2°55.982 -999 2.853833 27.368831 17.758922
2006-03-30 06:34:16 51°13.632 2°55.978 -999 2.851869 27.344397 17.792631
2006-03-30 06:34:20 51°13.633 2°55.977 -999 2.845975 27.278464 17.893759
2006-03-30 06:34:25 51°13.633 2°55.975 -999 2.837807 27.19074 17.961178
2006-03-30 06:34:30 51°13.634 2°55.973 -999 2.831086 27.118338 18.096016
2006-03-30 06:34:35 51°13.634 2°55.972 -999 2.831086 27.118338 18.096016
2006-03-30 06:34:40 51°13.635 2°55.97 -999 2.823952 27.045958 18.197144
2006-03-30 06:34:45 51°13.635 2°55.968 -999 2.823229 27.03687 18.264563
2006-03-30 06:34:50 51°13.636 2°55.965 -999 2.818163 26.979081 18.3994
2006-03-30 06:34:56 51°13.637 2°55.961 -999 2.819713 26.993265 18.43311
2006-03-30 06:35:00 51°13.638 2°55.958 -999 2.823642 27.031805 18.466819
2006-03-30 06:35:05 51°13.639 2°55.954 -999 2.825917 27.055072 18.534238
2006-03-30 06:35:10 51°13.64 2°55.949 -999 2.825917 27.055072 18.534238
2006-03-30 06:35:16 51°13.642 2°55.943 -999 2.825193 27.049614 18.567947
2006-03-30 06:35:20 51°13.643 2°55.939 -999 2.827674 27.074339 18.601657
2006-03-30 06:35:26 51°13.645 2°55.932 -999 2.830673 27.1067 18.669076
2006-03-30 06:35:31 51°13.647 2°55.925 -999 2.835842 27.164168 18.803913
2006-03-30 06:35:36 51°13.649 2°55.919 -999 2.835842 27.164168 18.803913
2006-03-30 06:35:40 51°13.651 2°55.913 -999 2.848457 27.30248 18.905042
2006-03-30 06:35:46 51°13.654 2°55.904 -999 2.854143 27.367702 19.039879
2006-03-30 06:35:51 51°13.656 2°55.897 -999 2.86376 27.473777 19.174717
2006-03-30 06:35:56 51°13.659 2°55.889 -999 2.867379 27.515744 19.275845
2006-03-30 06:36:00 51°13.661 2°55.883 -999 2.869447 27.543537 19.376973
2006-03-30 06:36:06 51°13.665 2°55.873 -999 2.869447 27.543537 19.376973
2006-03-30 06:36:10 51°13.667 2°55.866 -999 2.86893 27.539546 19.511811
2006-03-30 06:36:16 51°13.671 2°55.856 -999 2.866345 27.516627 19.612939
2006-03-30 06:36:20 51°13.674 2°55.849 -999 2.861175 27.458972 19.714067
2006-03-30 06:36:26 51°13.678 2°55.839 -999 2.857039 27.409335 19.781486
2006-03-30 06:36:30 51°13.68 2°55.832 -999 2.851559 27.348458 19.916324
2006-03-30 06:36:36 51°13.684 2°55.823 -999 2.845562 27.282148 20.051161
2006-03-30 06:36:41 51°13.687 2°55.815 -999 2.845562 27.282148 20.051161
2006-03-30 06:36:46 51°13.689 2°55.808 -999 2.839978 27.219509 20.185999
2006-03-30 06:36:51 51°13.692 2°55.801 -999 2.83729 27.188929 20.287127
2006-03-30 06:36:56 51°13.694 2°55.794 -999 2.834292 27.158727 20.455674
2006-03-30 06:37:00 51°13.696 2°55.789 -999 2.836773 27.188578 20.624221
2006-03-30 06:37:04 51°13.697 2°55.783 -999 2.845458 27.28545 20.759059
2006-03-30 06:37:10 51°13.7 2°55.776 -999 2.845458 27.28545 20.759059
2006-03-30 06:37:16 51°13.702 2°55.768 -999 2.850732 27.347057 20.826477
2006-03-30 06:37:20 51°13.704 2°55.763 -999 2.845665 27.294231 20.860187
2006-03-30 06:37:26 51°13.706 2°55.756 -999 2.84215 27.251951 20.927606
2006-03-30 06:37:31 51°13.707 2°55.751 -999 2.831914 27.139446 20.961315
2006-03-30 06:37:36 51°13.708 2°55.748 -999 2.831914 27.139446 20.961315
2006-03-30 06:37:40 51°13.709 2°55.745 -999 2.822815 27.039036 21.028734
2006-03-30 06:37:46 51°13.71 2°55.743 -999 2.811959 26.917999 21.062443
2006-03-30 06:37:50 51°13.71 2°55.743 -999 2.803378 26.826088 21.129862
2006-03-30 06:37:56 51°13.712 2°55.743 -999 2.80007 26.789783 21.163571
2006-03-30 06:38:00 51°13.713 2°55.743 -999 2.796244 26.746606 21.23099
2006-03-30 06:38:06 51°13.714 2°55.746 -999 2.792936 26.709607 21.2647
2006-03-30 06:38:11 51°13.716 2°55.748 -999 2.792936 26.709607 21.2647
2006-03-30 06:38:16 51°13.717 2°55.75 -999 2.792626 26.703476 21.298409
2006-03-30 06:38:21 51°13.719 2°55.752 -999 2.786113 26.631325 21.365828
2006-03-30 06:38:26 51°13.72 2°55.753 -999 2.785182 26.620104 21.399537
2006-03-30 06:38:31 51°13.721 2°55.754 -999 2.780737 26.57332 21.433247
2006-03-30 06:38:36 51°13.722 2°55.754 -999 2.78115 26.577671 21.433247
2006-03-30 06:38:41 51°13.722 2°55.753 -999 2.78115 26.577671 21.433247
2006-03-30 06:38:45 51°13.722 2°55.752 -999 2.777325 26.532444 21.399537
2006-03-30 06:38:50 51°13.722 2°55.75 -999 2.766367 26.408708 21.365828
2006-03-30 06:38:56 51°13.721 2°55.748 -999 2.748069 26.20595 21.433247
2006-03-30 06:39:01 51°13.72 2°55.745 -999 2.743417 26.155726 21.500665
2006-03-30 06:39:06 51°13.719 2°55.742 -999 2.74135 26.131233 21.568084
2006-03-30 06:39:10 51°13.717 2°55.74 -999 2.74135 26.131233 21.568084
2006-03-30 06:39:16 51°13.714 2°55.736 -999 2.741247 26.123853 21.568084
2006-03-30 06:39:21 51°13.713 2°55.734 -999 2.74042 26.113082 21.601794
2006-03-30 06:39:26 51°13.711 2°55.732 -999 2.740316 26.109901 21.669212
2006-03-30 06:39:30 51°13.71 2°55.731 -999 2.748379 26.194473 21.80405
2006-03-30 06:39:36 51°13.71 2°55.729 -999 2.748379 26.194473 21.80405
2006-03-30 06:39:41 51°13.71 2°55.728 -999 2.756959 26.289431 21.938888
2006-03-30 06:39:46 51°13.71 2°55.728 -999 2.774224 26.477821 22.141144
2006-03-30 06:39:51 51°13.711 2°55.727 -999 2.790351 26.658793 22.275982
2006-03-30 06:39:56 51°13.713 2°55.727 -999 2.80162 26.787442 22.3434
2006-03-30 06:40:00 51°13.716 2°55.726 -999 2.812166 26.902135 22.444529
2006-03-30 06:40:06 51°13.719 2°55.724 -999 2.820954 27.001281 22.511947
2006-03-30 06:40:11 51°13.722 2°55.721 -999 2.820954 27.001281 22.511947
2006-03-30 06:40:16 51°13.726 2°55.718 -999 2.825193 27.048889 22.478238
2006-03-30 06:40:20 51°13.73 2°55.716 -999 2.811546 26.899925 22.444529
2006-03-30 06:40:26 51°13.735 2°55.71 -999 2.792109 26.680861 22.410819
2006-03-30 06:40:31 51°13.74 2°55.706 -999 2.774327 26.484581 22.444529
2006-03-30 06:40:36 51°13.746 2°55.701 -999 2.756339 26.287142 22.410819
2006-03-30 06:40:40 51°13.751 2°55.697 -999 2.756339 26.287142 22.410819
2006-03-30 06:40:46 51°13.759 2°55.689 -999 2.730909 26.007798 22.37711
2006-03-30 06:40:51 51°13.766 2°55.683 -999 2.703827 25.710393 22.275982
2006-03-30 06:40:56 51°13.773 2°55.677 -999 2.67716 25.414622 22.3434
2006-03-30 06:41:00 51°13.779 2°55.671 -999 2.673439 25.368322 22.511947
2006-03-30 06:41:06 51°13.789 2°55.663 -999 2.673439 25.368322 22.511947
2006-03-30 06:41:11 51°13.797 2°55.657 -999 2.68026 25.435443 22.646785
2006-03-30 06:41:16 51°13.806 2°55.65 -999 2.680777 25.438798 22.714204
2006-03-30 06:41:20 51°13.813 2°55.645 -999 2.675919 25.381327 22.714204
2006-03-30 06:41:26 51°13.824 2°55.637 -999 2.658865 25.19813 22.613076
2006-03-30 06:41:31 51°13.833 2°55.63 -999 2.643982 25.031082 22.478238
2006-03-30 06:41:36 51°13.842 2°55.624 -999 2.643982 25.031082 22.478238
2006-03-30 06:41:41 51°13.852 2°55.617 -999 2.618972 24.761044 22.410819
2006-03-30 06:41:46 51°13.861 2°55.61 -999 2.596546 24.511829 22.309691
2006-03-30 06:41:51 51°13.871 2°55.603 -999 2.566578 24.181272 22.208563
2006-03-30 06:41:56 51°13.881 2°55.596 -999 2.542708 23.918512 22.141144
2006-03-30 06:42:00 51°13.889 2°55.591 -999 2.525452 23.724594 22.073725
2006-03-30 06:42:06 51°13.901 2°55.583 -999 2.515636 23.616491 22.006306
2006-03-30 06:42:10 51°13.908 2°55.578 -999 2.515636 23.616491 22.006306
2006-03-30 06:42:16 51°13.92 2°55.57 -999 2.513053 23.586116 21.938888
2006-03-30 06:42:20 51°13.927 2°55.564 -999 2.5114 23.567835 21.905178
2006-03-30 06:42:26 51°13.938 2°55.556 -999 2.529069 23.753685 21.972597
2006-03-30 06:42:31 51°13.947 2°55.55 -999 2.568024 24.167941 22.107435
2006-03-30 06:42:36 51°13.956 2°55.543 -999 2.613701 24.664861 22.208563
2006-03-30 06:42:40 51°13.964 2°55.538 -999 2.613701 24.664861 22.208563
2006-03-30 06:42:46 51°13.975 2°55.53 -999 2.657418 25.145472 22.3434
2006-03-30 06:42:51 51°13.984 2°55.524 -999 2.70486 25.668355 22.511947
2006-03-30 06:42:56 51°13.993 2°55.518 -999 2.759543 26.268044 22.747913
2006-03-30 06:43:01 51°14.002 2°55.512 -999 2.802654 26.754587 22.983879
2006-03-30 06:43:06 51°14.011 2°55.505 -999 2.802654 26.754587 22.983879
2006-03-30 06:43:10 51°14.018 2°55.5 -999 2.851041 27.293906 23.152426
2006-03-30 06:43:16 51°14.028 2°55.493 -999 2.887335 27.696469 23.320973
2006-03-30 06:43:20 51°14.036 2°55.488 -999 2.914842 28.012384 23.422101
2006-03-30 06:43:26 51°14.046 2°55.48 -999 2.930044 28.189476 23.422101
2006-03-30 06:43:30 51°14.054 2°55.475 -999 2.930664 28.200607 23.455811
2006-03-30 06:43:36 51°14.065 2°55.467 -999 2.930664 28.200607 23.455811
2006-03-30 06:43:41 51°14.074 2°55.46 -999 2.933456 28.230251 23.354683
2006-03-30 06:43:46 51°14.083 2°55.453 -999 2.918668 28.057465 23.287264
2006-03-30 06:43:50 51°14.09 2°55.447 -999 2.895091 27.791182 23.287264
2006-03-30 06:43:56 51°14.101 2°55.439 -999 2.870273 27.513874 23.320973
2006-03-30 06:44:01 51°14.11 2°55.431 -999 2.836359 27.141232 23.287264
2006-03-30 06:44:06 51°14.119 2°55.424 -999 2.796864 26.70015 23.320973
2006-03-30 06:44:11 51°14.128 2°55.416 -999 2.796864 26.70015 23.320973
2006-03-30 06:44:16 51°14.137 2°55.408 -999 2.75975 26.286363 23.388392
2006-03-30 06:44:20 51°14.144 2°55.402 -999 2.727808 25.928815 23.52323
2006-03-30 06:44:26 51°14.155 2°55.392 -999 2.708995 25.710838 23.691777
2006-03-30 06:44:31 51°14.165 2°55.383 -999 2.698348 25.592871 23.860324
2006-03-30 06:44:36 51°14.174 2°55.373 -999 2.698348 25.592871 23.860324
2006-03-30 06:44:40 51°14.181 2°55.365 -999 2.713956 25.766777 24.028871
2006-03-30 06:44:46 51°14.193 2°55.353 -999 2.733493 25.986904 24.129999
2006-03-30 06:44:51 51°14.202 2°55.343 -999 2.758716 26.264991 24.197418
2006-03-30 06:44:56 51°14.211 2°55.332 -999 2.772983 26.422333 24.231127
2006-03-30 06:45:00 51°14.219 2°55.322 -999 2.78177 26.530147 24.298546
2006-03-30 06:45:06 51°14.229 2°55.308 -999 2.78177 26.530147 24.298546
2006-03-30 06:45:11 51°14.238 2°55.296 -999 2.798622 26.71577 24.332255
2006-03-30 06:45:16 51°14.247 2°55.284 -999 2.800689 26.74252 24.332255
2006-03-30 06:45:21 51°14.255 2°55.271 -999 2.794693 26.679466 24.298546
2006-03-30 06:45:26 51°14.264 2°55.257 -999 2.781667 26.53261 24.264836
2006-03-30 06:45:31 51°14.272 2°55.243 -999 2.761404 26.303707 24.197418
2006-03-30 06:45:36 51°14.28 2°55.229 -999 2.746621 26.134771 24.197418
2006-03-30 06:45:40 51°14.286 2°55.217 -999 2.746621 26.134771 24.197418
2006-03-30 06:45:46 51°14.296 2°55.199 -999 2.732873 25.985273 24.197418
2006-03-30 06:45:51 51°14.304 2°55.183 -999 2.722122 25.870737 24.197418
2006-03-30 06:45:56 51°14.312 2°55.168 -999 2.719745 25.836905 24.231127
2006-03-30 06:46:01 51°14.321 2°55.152 -999 2.716954 25.80429 24.298546
2006-03-30 06:46:05 51°14.327 2°55.14 -999 2.710649 25.737722 24.399674
2006-03-30 06:46:10 51°14.336 2°55.124 -999 2.710649 25.737722 24.399674
2006-03-30 06:46:15 51°14.344 2°55.109 -999 2.70517 25.681871 24.467093
2006-03-30 06:46:20 51°14.353 2°55.093 -999 2.696488 25.579601 24.534512
2006-03-30 06:46:25 51°14.362 2°55.078 -999 2.683774 25.439512 24.568221
2006-03-30 06:46:30 51°14.372 2°55.063 -999 2.678916 25.384811 24.703059
2006-03-30 06:46:35 51°14.381 2°55.049 -999 2.678916 25.384811 24.703059
2006-03-30 06:46:40 51°14.391 2°55.035 -999 2.683154 25.436439 24.770477
2006-03-30 06:46:45 51°14.402 2°55.021 -999 2.706617 25.688072 24.837896
2006-03-30 06:46:50 51°14.413 2°55.007 -999 2.73339 25.982354 24.871606
2006-03-30 06:46:55 51°14.424 2°54.993 -999 2.753651 26.208406 24.871606
2006-03-30 06:47:00 51°14.436 2°54.98 -999 2.778565 26.487282 24.804187
2006-03-30 06:47:05 51°14.447 2°54.964 -999 2.778565 26.487282 24.804187
2006-03-30 06:47:10 51°14.458 2°54.949 -999 2.810304 26.832892 24.770477
2006-03-30 06:47:15 51°14.47 2°54.932 -999 2.83884 27.151394 24.770477
2006-03-30 06:47:20 51°14.481 2°54.914 -999 2.874203 27.545798 24.871606
2006-03-30 06:47:25 51°14.492 2°54.896 -999 2.907086 27.919694 24.972734
2006-03-30 06:47:30 51°14.504 2°54.878 -999 2.930457 28.180998 25.006443
2006-03-30 06:47:35 51°14.516 2°54.86 -999 2.961793 28.532849 24.972734
2006-03-30 06:47:40 51°14.528 2°54.843 -999 2.961793 28.532849 24.972734
2006-03-30 06:47:45 51°14.541 2°54.827 -999 2.992613 28.872424 24.871606
2006-03-30 06:47:50 51°14.555 2°54.813 -999 3.029229 29.27618 24.736768
2006-03-30 06:47:55 51°14.57 2°54.802 -999 3.07857 29.8188 24.568221
2006-03-30 06:48:00 51°14.586 2°54.793 -999 3.119848 30.278272 24.433383
2006-03-30 06:48:05 51°14.601 2°54.784 -999 3.119848 30.278272 24.433383
2006-03-30 06:48:10 51°14.617 2°54.776 -999 3.161543 30.732852 24.197418
2006-03-30 06:48:15 51°14.632 2°54.767 -999 3.193205 31.07451 24.06258
2006-03-30 06:48:20 51°14.648 2°54.76 -999 3.219177 31.362082 23.927742
2006-03-30 06:48:25 51°14.664 2°54.75 -999 3.242461 31.618525 23.860324
2006-03-30 06:48:30 51°14.679 2°54.74 -999 3.260985 31.829008 23.759195
2006-03-30 06:48:35 51°14.695 2°54.729 -999 3.260985 31.829008 23.759195
2006-03-30 06:48:40 51°14.711 2°54.72 -999 3.276405 32.008787 23.759195
2006-03-30 06:48:45 51°14.726 2°54.709 -999 3.282614 32.081223 23.691777
2006-03-30 06:48:50 51°14.742 2°54.698 -999 3.290997 32.172044 23.624358
2006-03-30 06:48:55 51°14.758 2°54.689 -999 3.298863 32.269492 23.556939
2006-03-30 06:49:00 51°14.774 2°54.678 -999 3.297311 32.259629 23.48952
2006-03-30 06:49:05 51°14.789 2°54.668 -999 3.303624 32.331606 23.422101
2006-03-30 06:49:10 51°14.805 2°54.658 -999 3.303624 32.331606 23.422101
2006-03-30 06:49:15 51°14.821 2°54.648 -999 3.30704 32.373041 23.320973
2006-03-30 06:49:20 51°14.837 2°54.639 -999 3.310455 32.41537 23.287264
2006-03-30 06:49:25 51°14.853 2°54.629 -999 3.30911 32.399887 23.186136
2006-03-30 06:49:30 51°14.869 2°54.619 -999 3.314181 32.454949 23.152426
2006-03-30 06:49:35 51°14.885 2°54.609 -999 3.314802 32.466958 23.118717
2006-03-30 06:49:40 51°14.901 2°54.599 -999 3.314802 32.466958 23.118717
2006-03-30 06:49:45 51°14.916 2°54.588 -999 3.316148 32.483328 23.118717
2006-03-30 06:49:50 51°14.932 2°54.578 -999 3.313871 32.451577 23.051298
2006-03-30 06:49:55 51°14.947 2°54.567 -999 3.314906 32.468082 23.017589
2006-03-30 06:50:00 51°14.963 2°54.555 -999 3.317804 32.500437 23.017589
2006-03-30 06:50:05 51°14.978 2°54.544 -999 3.317804 32.500437 23.017589
2006-03-30 06:50:10 51°14.994 2°54.532 -999 3.320598 32.532553 23.017589
2006-03-30 06:50:15 51°15.009 2°54.52 -999 3.320805 32.533043 23.017589
2006-03-30 06:50:20 51°15.024 2°54.51 -999 3.316355 32.484698 23.051298
2006-03-30 06:50:25 51°15.039 2°54.499 -999 3.324428 32.573281 23.118717
2006-03-30 06:50:30 51°15.054 2°54.488 -999 3.324842 32.580423 23.152426
2006-03-30 06:50:35 51°15.07 2°54.477 -999 3.324842 32.580423 23.152426
2006-03-30 06:50:40 51°15.085 2°54.466 -999 3.327947 32.61505 23.219845
2006-03-30 06:50:45 51°15.1 2°54.455 -999 3.325981 32.592796 23.253554
2006-03-30 06:50:50 51°15.115 2°54.445 -999 3.326602 32.5969 23.422101
2006-03-30 06:50:55 51°15.131 2°54.435 -999 3.329086 32.627425 23.624358
2006-03-30 06:51:00 51°15.146 2°54.426 -999 3.332605 32.670981 23.826614
2006-03-30 06:51:05 51°15.162 2°54.416 -999 3.333743 32.684245 23.961452
2006-03-30 06:51:10 51°15.177 2°54.408 -999 3.333743 32.684245 23.961452
2006-03-30 06:51:15 51°15.192 2°54.397 -999 3.336331 32.715039 24.096289
2006-03-30 06:51:20 51°15.208 2°54.387 -999 3.337263 32.730484 24.163708
2006-03-30 06:51:25 51°15.224 2°54.379 -999 3.337159 32.733787 24.163708
2006-03-30 06:51:30 51°15.24 2°54.37 -999 3.335917 32.726473 24.197418
2006-03-30 06:51:35 51°15.256 2°54.363 -999 3.335917 32.726473 24.197418
2006-03-30 06:51:40 51°15.273 2°54.356 -999 3.340782 32.782963 24.197418
2006-03-30 06:51:45 51°15.289 2°54.35 -999 3.340472 32.784909 24.163708
2006-03-30 06:51:50 51°15.305 2°54.342 -999 3.341403 32.803045 24.06258
2006-03-30 06:51:55 51°15.322 2°54.336 -999 3.343474 32.831813 23.961452
2006-03-30 06:52:00 51°15.338 2°54.327 -999 3.344509 32.845758 23.826614
2006-03-30 06:52:05 51°15.354 2°54.318 -999 3.344509 32.845758 23.826614
2006-03-30 06:52:10 51°15.37 2°54.308 -999 3.341817 32.820888 23.725486
2006-03-30 06:52:15 51°15.386 2°54.296 -999 3.342853 32.833944 23.658067
2006-03-30 06:52:20 51°15.402 2°54.286 -999 3.343267 32.840234 23.590648
2006-03-30 06:52:25 51°15.418 2°54.273 -999 3.344509 32.85644 23.52323
2006-03-30 06:52:30 51°15.434 2°54.261 -999 3.344095 32.858162 23.455811
2006-03-30 06:52:35 51°15.449 2°54.249 -999 3.343888 32.863033 23.422101
2006-03-30 06:52:40 51°15.466 2°54.237 -999 3.343888 32.863033 23.422101
2006-03-30 06:52:45 51°15.481 2°54.225 -999 3.344302 32.868438 23.422101
2006-03-30 06:52:50 51°15.497 2°54.214 -999 3.345751 32.885129 23.388392
2006-03-30 06:52:55 51°15.513 2°54.201 -999 3.346476 32.895705 23.388392
2006-03-30 06:53:00 51°15.529 2°54.188 -999 3.346579 32.897726 23.388392
2006-03-30 06:53:05 51°15.545 2°54.175 -999 3.346269 32.899693 23.388392
2006-03-30 06:53:10 51°15.561 2°54.161 -999 3.346269 32.899693 23.388392
2006-03-30 06:53:15 51°15.577 2°54.148 -999 3.346165 32.902134 23.354683
2006-03-30 06:53:20 51°15.592 2°54.134 -999 3.346165 32.901242 23.354683
2006-03-30 06:53:25 51°15.608 2°54.12 -999 3.347614 32.916155 23.320973
2006-03-30 06:53:30 51°15.624 2°54.106 -999 3.345544 32.89536 23.287264
2006-03-30 06:53:35 51°15.64 2°54.094 -999 3.345544 32.89536 23.287264
2006-03-30 06:53:40 51°15.657 2°54.08 -999 3.345441 32.896016 23.253554
2006-03-30 06:53:45 51°15.673 2°54.068 -999 3.34689 32.91093 23.253554
2006-03-30 06:53:50 51°15.689 2°54.056 -999 3.348546 32.924531 23.287264
2006-03-30 06:53:55 51°15.706 2°54.045 -999 3.34896 32.926368 23.287264
2006-03-30 06:54:00 51°15.722 2°54.032 -999 3.351134 32.951865 23.287264
2006-03-30 06:54:05 51°15.738 2°54.02 -999 3.351134 32.951865 23.287264
2006-03-30 06:54:10 51°15.755 2°54.009 -999 3.349477 32.934693 23.320973
2006-03-30 06:54:15 51°15.771 2°53.994 -999 3.350616 32.948007 23.388392
2006-03-30 06:54:20 51°15.786 2°53.98 -999 3.349477 32.935586 23.455811
2006-03-30 06:54:25 51°15.802 2°53.967 -999 3.350616 32.952476 23.556939
2006-03-30 06:54:30 51°15.818 2°53.953 -999 3.349995 32.951958 23.658067
2006-03-30 06:54:35 51°15.833 2°53.94 -999 3.352376 32.984204 23.759195
2006-03-30 06:54:40 51°15.849 2°53.925 -999 3.352376 32.984204 23.759195
2006-03-30 06:54:45 51°15.866 2°53.911 -999 3.350823 32.974417 23.894033
2006-03-30 06:54:50 51°15.881 2°53.898 -999 3.353101 33.007344 23.961452
2006-03-30 06:54:55 51°15.897 2°53.886 -999 3.352687 33.006408 24.028871
2006-03-30 06:55:00 51°15.913 2°53.872 -999 3.353618 33.016583 24.096289
2006-03-30 06:55:05 51°15.929 2°53.859 -999 3.352273 33.001885 24.163708
2006-03-30 06:55:10 51°15.945 2°53.844 -999 3.352273 33.001885 24.163708
2006-03-30 06:55:15 51°15.96 2°53.832 -999 3.352066 33.000521 24.231127
2006-03-30 06:55:20 51°15.977 2°53.818 -999 3.353101 33.015413 24.332255
2006-03-30 06:55:25 51°15.992 2°53.805 -999 3.350306 32.992951 24.433383
2006-03-30 06:55:30 51°16.008 2°53.792 -999 3.348443 32.980662 24.500802
2006-03-30 06:55:35 51°16.024 2°53.778 -999 3.348443 32.980662 24.500802
2006-03-30 06:55:40 51°16.04 2°53.766 -999 3.347511 32.979446 24.500802
2006-03-30 06:55:46 51°16.059 2°53.75 -999 3.34627 32.976629 24.500802
2006-03-30 06:55:50 51°16.071 2°53.739 -999 3.345234 32.968899 24.500802
2006-03-30 06:55:55 51°16.088 2°53.726 -999 3.344406 32.965226 24.534512
2006-03-30 06:56:00 51°16.103 2°53.711 -999 3.343475 32.959523 24.534512
2006-03-30 06:56:05 51°16.119 2°53.697 -999 3.344303 32.969475 24.534512
2006-03-30 06:56:10 51°16.134 2°53.684 -999 3.344303 32.969475 24.534512
2006-03-30 06:56:15 51°16.15 2°53.669 -999 3.343786 32.966506 24.534512
2006-03-30 06:56:20 51°16.166 2°53.655 -999 3.344303 32.973961 24.500802
2006-03-30 06:56:25 51°16.181 2°53.641 -999 3.345442 32.985517 24.500802
2006-03-30 06:56:30 51°16.197 2°53.627 -999 3.342647 32.957641 24.534512
2006-03-30 06:56:35 51°16.213 2°53.612 -999 3.349064 33.028742 24.568221
2006-03-30 06:56:40 51°16.228 2°53.597 -999 3.349064 33.028742 24.568221
2006-03-30 06:56:45 51°16.244 2°53.583 -999 3.350721 33.049561 24.60193
2006-03-30 06:56:50 51°16.259 2°53.568 -999 3.349272 33.036401 24.63564
2006-03-30 06:56:55 51°16.275 2°53.553 -999 3.348858 33.036367 24.63564
2006-03-30 06:57:00 51°16.29 2°53.538 -999 3.349272 33.043597 24.63564
2006-03-30 06:57:05 51°16.306 2°53.524 -999 3.349272 33.043597 24.63564
2006-03-30 06:57:10 51°16.321 2°53.508 -999 3.348444 33.036333 24.60193
2006-03-30 06:57:15 51°16.337 2°53.495 -999 3.349582 33.049695 24.568221
2006-03-30 06:57:20 51°16.353 2°53.481 -999 3.350824 33.064193 24.568221
2006-03-30 06:57:25 51°16.368 2°53.466 -999 3.349168 33.046063 24.568221
2006-03-30 06:57:30 51°16.383 2°53.451 -999 3.349375 33.050129 24.60193
2006-03-30 06:57:35 51°16.398 2°53.435 -999 3.349375 33.050129 24.60193
2006-03-30 06:57:40 51°16.414 2°53.418 -999 3.352895 33.093165 24.60193
2006-03-30 06:57:45 51°16.428 2°53.403 -999 3.349479 33.061166 24.534512
2006-03-30 06:57:50 51°16.444 2°53.386 -999 3.350824 33.078605 24.467093
2006-03-30 06:57:55 51°16.458 2°53.371 -999 3.350617 33.077239 24.399674
2006-03-30 06:58:00 51°16.473 2°53.354 -999 3.348961 33.060001 24.298546
2006-03-30 06:58:05 51°16.489 2°53.338 -999 3.350307 33.07564 24.163708
2006-03-30 06:58:10 51°16.504 2°53.324 -999 3.350307 33.07564 24.163708
2006-03-30 06:58:15 51°16.518 2°53.307 -999 3.349375 33.06904 24.163708
2006-03-30 06:58:20 51°16.533 2°53.291 -999 3.348858 33.062471 24.197418
2006-03-30 06:58:25 51°16.548 2°53.275 -999 3.347098 33.044999 24.332255
2006-03-30 06:58:30 51°16.563 2°53.259 -999 3.34389 33.012555 24.467093
2006-03-30 06:58:35 51°16.578 2°53.243 -999 3.343165 33.006419 24.534512
2006-03-30 06:58:40 51°16.593 2°53.226 -999 3.343165 33.006419 24.534512
2006-03-30 06:58:45 51°16.609 2°53.211 -999 3.341509 32.99008 24.534512
2006-03-30 06:58:50 51°16.624 2°53.195 -999 3.339749 32.972606 24.467093
2006-03-30 06:58:55 51°16.639 2°53.18 -999 3.34037 32.981206 24.467093
2006-03-30 06:59:00 51°16.654 2°53.165 -999 3.339439 32.971003 24.399674
2006-03-30 06:59:05 51°16.67 2°53.15 -999 3.339439 32.971003 24.399674
2006-03-30 06:59:10 51°16.684 2°53.133 -999 3.340474 32.98234 24.365965
2006-03-30 06:59:15 51°16.699 2°53.118 -999 3.340163 32.979837 24.433383
2006-03-30 06:59:20 51°16.714 2°53.102 -999 3.340888 32.994069 24.467093
2006-03-30 06:59:25 51°16.729 2°53.086 -999 3.340371 32.995596 24.568221
2006-03-30 06:59:30 51°16.745 2°53.071 -999 3.338404 32.981243 24.63564
2006-03-30 06:59:35 51°16.76 2°53.056 -999 3.339853 33.004326 24.736768
2006-03-30 06:59:40 51°16.775 2°53.04 -999 3.339853 33.004326 24.736768
2006-03-30 06:59:45 51°16.79 2°53.025 -999 3.336955 32.980657 24.804187
2006-03-30 06:59:50 51°16.805 2°53.01 -999 3.337369 32.9933 24.905315
2006-03-30 06:59:55 51°16.82 2°52.995 -999 3.335092 32.97283 25.073862
2006-03-30 07:00:00 51°16.835 2°52.981 -999 3.332919 32.955292 25.276118
2006-03-30 07:00:05 51°16.849 2°52.967 -999 3.332505 32.954351 25.410956
2006-03-30 07:00:10 51°16.863 2°52.953 -999 3.332505 32.954351 25.410956
2006-03-30 07:00:15 51°16.877 2°52.939 -999 3.332298 32.95478 25.512084
2006-03-30 07:00:20 51°16.891 2°52.925 -999 3.332505 32.964254 25.512084
2006-03-30 07:00:25 51°16.905 2°52.911 -999 3.329089 32.933079 25.478375
2006-03-30 07:00:30 51°16.918 2°52.896 -999 3.328675 32.932135 25.377247
2006-03-30 07:00:35 51°16.932 2°52.881 -999 3.328986 32.940044 25.242409
2006-03-30 07:00:40 51°16.946 2°52.866 -999 3.328986 32.940044 25.242409
2006-03-30 07:00:44 51°16.958 2°52.854 -999 3.328261 32.933893 25.107571
2006-03-30 07:00:50 51°16.975 2°52.836 -999 3.329089 32.945682 25.040153
2006-03-30 07:00:55 51°16.99 2°52.822 -999 3.330745 32.96296 24.972734
2006-03-30 07:01:00 51°17.006 2°52.809 -999 3.331366 32.970678 24.939024
2006-03-30 07:01:05 51°17.021 2°52.795 -999 3.331366 32.970678 24.939024
2006-03-30 07:01:10 51°17.037 2°52.783 -999 3.333747 33.002227 24.871606
2006-03-30 07:01:15 51°17.053 2°52.771 -999 3.332505 32.994001 24.804187
2006-03-30 07:01:20 51°17.069 2°52.759 -999 3.333126 33.008043 24.736768
2006-03-30 07:01:25 51°17.086 2°52.748 -999 3.335817 33.046646 24.669349
2006-03-30 07:01:30 51°17.102 2°52.736 -999 3.337991 33.077774 24.63564
2006-03-30 07:01:35 51°17.118 2°52.727 -999 3.33737 33.079095 24.60193
2006-03-30 07:01:40 51°17.135 2°52.716 -999 3.33737 33.079095 24.60193
2006-03-30 07:01:45 51°17.151 2°52.704 -999 3.329504 32.998039 24.60193
2006-03-30 07:01:50 51°17.167 2°52.693 -999 3.33706 33.084739 24.568221
2006-03-30 07:01:55 51°17.183 2°52.681 -999 3.339337 33.114318 24.534512
2006-03-30 07:02:00 51°17.199 2°52.669 -999 3.337681 33.102447 24.568221
2006-03-30 07:02:05 51°17.215 2°52.657 -999 3.338406 33.116769 24.60193
2006-03-30 07:02:10 51°17.23 2°52.647 -999 3.338406 33.116769 24.60193
2006-03-30 07:02:15 51°17.246 2°52.634 -999 3.339337 33.13156 24.669349
2006-03-30 07:02:20 51°17.262 2°52.621 -999 3.339648 33.135886 24.703059
2006-03-30 07:02:25 51°17.278 2°52.61 -999 3.338509 33.126985 24.770477
2006-03-30 07:02:30 51°17.294 2°52.598 -999 3.338613 33.132665 24.804187
2006-03-30 07:02:35 51°17.31 2°52.586 -999 3.338613 33.132665 24.804187
2006-03-30 07:02:40 51°17.326 2°52.576 -999 3.337681 33.12695 24.804187
2006-03-30 07:02:45 51°17.342 2°52.564 -999 3.338716 33.141073 24.804187
2006-03-30 07:02:50 51°17.359 2°52.553 -999 3.33913 33.148358 24.804187
2006-03-30 07:02:55 51°17.375 2°52.542 -999 3.337164 33.128518 24.736768
2006-03-30 07:03:00 51°17.391 2°52.531 -999 3.336543 33.123496 24.736768
2006-03-30 07:03:05 51°17.408 2°52.52 -999 3.336543 33.123496 24.736768
2006-03-30 07:03:10 51°17.424 2°52.51 -999 3.337888 33.140133 24.703059
2006-03-30 07:03:15 51°17.441 2°52.499 -999 3.338406 33.145833 24.703059
2006-03-30 07:03:20 51°17.457 2°52.488 -999 3.33882 33.151302 24.703059
2006-03-30 07:03:25 51°17.474 2°52.478 -999 3.339234 33.156772 24.736768
2006-03-30 07:03:30 51°17.491 2°52.468 -999 3.338302 33.144693 24.736768
2006-03-30 07:03:35 51°17.508 2°52.458 -999 3.338199 33.143553 24.736768
2006-03-30 07:03:40 51°17.524 2°52.448 -999 3.338199 33.143553 24.736768
2006-03-30 07:03:45 51°17.541 2°52.438 -999 3.337888 33.14286 24.736768
2006-03-30 07:03:50 51°17.558 2°52.43 -999 3.339545 33.167471 24.736768
2006-03-30 07:03:55 51°17.574 2°52.419 -999 3.337371 33.144432 24.736768
2006-03-30 07:04:00 51°17.591 2°52.412 -999 3.337474 33.145573 24.736768
2006-03-30 07:04:05 51°17.607 2°52.402 -999 3.337474 33.145573 24.736768
2006-03-30 07:04:10 51°17.624 2°52.395 -999 3.338095 33.150596 24.736768
2006-03-30 07:04:15 51°17.641 2°52.387 -999 3.340269 33.173634 24.736768
2006-03-30 07:04:20 51°17.658 2°52.382 -999 3.338923 33.158809 24.736768
2006-03-30 07:04:25 51°17.675 2°52.373 -999 3.331471 33.07672 24.736768
2006-03-30 07:04:30 51°17.692 2°52.372 -999 3.339959 33.169302 24.736768
2006-03-30 07:04:35 51°17.709 2°52.368 -999 3.339959 33.169302 24.736768
2006-03-30 07:04:40 51°17.727 2°52.363 -999 3.340373 33.172044 24.736768
2006-03-30 07:04:45 51°17.744 2°52.359 -999 3.341511 33.182767 24.736768
2006-03-30 07:04:50 51°17.761 2°52.356 -999 3.34058 33.170685 24.770477
2006-03-30 07:04:55 51°17.778 2°52.352 -999 3.342546 33.19326 24.736768
2006-03-30 07:05:00 51°17.796 2°52.348 -999 3.341615 33.184818 24.804187
2006-03-30 07:05:05 51°17.813 2°52.346 -999 3.34089 33.179566 24.804187
2006-03-30 07:05:10 51°17.83 2°52.344 -999 3.34089 33.179566 24.804187
2006-03-30 07:05:15 51°17.848 2°52.341 -999 3.341925 33.196434 24.837896
2006-03-30 07:05:20 51°17.865 2°52.341 -999 3.340062 33.176814 24.871606
2006-03-30 07:05:25 51°17.882 2°52.34 -999 3.339441 33.16997 24.905315
2006-03-30 07:05:30 51°17.9 2°52.338 -999 3.335301 33.125262 24.905315
2006-03-30 07:05:35 51°17.918 2°52.339 -999 3.337578 33.15217 24.972734
2006-03-30 07:05:40 51°17.935 2°52.335 -999 3.337578 33.15217 24.972734
2006-03-30 07:05:45 51°17.953 2°52.334 -999 3.342857 33.213991 25.006443
2006-03-30 07:05:50 51°17.97 2°52.331 -999 3.336025 33.142339 25.006443
2006-03-30 07:05:55 51°17.988 2°52.33 -999 3.336233 33.147349 25.006443
2006-03-30 07:06:00 51°18.005 2°52.327 -999 3.336543 33.150772 25.073862
2006-03-30 07:06:05 51°18.022 2°52.328 -999 3.336543 33.150772 25.073862
2006-03-30 07:06:10 51°18.04 2°52.324 -999 3.335508 33.143913 25.141281
2006-03-30 07:06:15 51°18.057 2°52.326 -999 3.333645 33.129744 25.2087
2006-03-30 07:06:20 51°18.075 2°52.323 -999 3.330333 33.096868 25.17499
2006-03-30 07:06:25 51°18.092 2°52.325 -999 3.333024 33.126536 25.141281
2006-03-30 07:06:30 51°18.11 2°52.323 -999 3.333645 33.137023 25.107571
2006-03-30 07:06:35 51°18.127 2°52.324 -999 3.331679 33.118068 25.107571
2006-03-30 07:06:40 51°18.144 2°52.324 -999 3.331679 33.118068 25.107571
2006-03-30 07:06:45 51°18.162 2°52.323 -999 3.331886 33.1249 25.141281
2006-03-30 07:06:50 51°18.179 2°52.32 -999 3.329816 33.10753 25.2087
2006-03-30 07:06:55 51°18.197 2°52.323 -999 3.335301 33.172597 25.242409
2006-03-30 07:07:00 51°18.215 2°52.319 -999 3.333956 33.159574 25.242409
2006-03-30 07:07:05 51°18.232 2°52.32 -999 3.334577 33.169161 25.2087
2006-03-30 07:07:10 51°18.25 2°52.32 -999 3.334577 33.169161 25.2087
2006-03-30 07:07:15 51°18.267 2°52.32 -999 3.332507 33.149053 25.2087
2006-03-30 07:07:20 51°18.285 2°52.321 -999 3.334163 33.167327 25.2087
2006-03-30 07:07:25 51°18.302 2°52.322 -999 3.332817 33.152479 25.17499
2006-03-30 07:07:30 51°18.32 2°52.32 -999 3.333852 33.163901 25.2087
2006-03-30 07:07:35 51°18.337 2°52.32 -999 3.333542 33.164121 25.141281
2006-03-30 07:07:40 51°18.355 2°52.319 -999 3.333542 33.164121 25.141281
2006-03-30 07:07:45 51°18.372 2°52.319 -999 3.332714 33.155894 25.107571
2006-03-30 07:07:50 51°18.39 2°52.317 -999 3.332196 33.149271 25.107571
2006-03-30 07:07:55 51°18.407 2°52.318 -999 3.331161 33.142405 25.073862
2006-03-30 07:08:00 51°18.425 2°52.314 -999 3.328263 33.112244 25.040153
2006-03-30 07:08:05 51°18.442 2°52.314 -999 3.328263 33.112244 25.040153
2006-03-30 07:08:10 51°18.459 2°52.314 -999 3.330333 33.137823 25.040153
2006-03-30 07:08:15 51°18.477 2°52.314 -999 3.3323 33.161354 25.040153
2006-03-30 07:08:20 51°18.495 2°52.311 -999 3.329505 33.133239 25.073862
2006-03-30 07:08:25 51°18.513 2°52.311 -999 3.329712 33.138259 25.073862
2006-03-30 07:08:30 51°18.53 2°52.309 -999 3.32816 33.122031 25.107571
2006-03-30 07:08:35 51°18.548 2°52.307 -999 3.329402 33.137565 25.141281
2006-03-30 07:08:40 51°18.565 2°52.305 -999 3.329402 33.137565 25.141281
2006-03-30 07:08:45 51°18.583 2°52.305 -999 3.328367 33.128872 25.17499
2006-03-30 07:08:50 51°18.6 2°52.304 -999 3.327435 33.124056 25.17499
2006-03-30 07:08:55 51°18.618 2°52.301 -999 3.325469 33.105074 25.17499
2006-03-30 07:09:00 51°18.636 2°52.301 -999 3.326297 33.119686 25.242409
2006-03-30 07:09:05 51°18.653 2°52.298 -999 3.32195 33.077143 25.242409
2006-03-30 07:09:10 51°18.671 2°52.299 -999 3.32195 33.077143 25.242409
2006-03-30 07:09:15 51°18.689 2°52.296 -999 3.322571 33.088555 25.276118
2006-03-30 07:09:20 51°18.706 2°52.294 -999 3.324745 33.114389 25.276118
2006-03-30 07:09:25 51°18.724 2°52.292 -999 3.320605 33.071387 25.242409
2006-03-30 07:09:30 51°18.742 2°52.291 -999 3.324227 33.112318 25.2087
2006-03-30 07:09:35 51°18.76 2°52.29 -999 3.324227 33.112318 25.2087
2006-03-30 07:09:40 51°18.777 2°52.291 -999 3.323296 33.10385 25.2087
2006-03-30 07:09:45 51°18.795 2°52.29 -999 3.320398 33.071833 25.242409
2006-03-30 07:09:50 51°18.812 2°52.287 -999 3.322261 33.092415 25.276118
2006-03-30 07:09:55 51°18.83 2°52.287 -999 3.321847 33.087841 25.276118
2006-03-30 07:10:00 51°18.848 2°52.284 -999 3.321847 33.089663 25.309828
2006-03-30 07:10:05 51°18.865 2°52.284 -999 3.321847 33.089663 25.309828
2006-03-30 07:10:10 51°18.883 2°52.282 -999 3.32195 33.094452 25.343537
2006-03-30 07:10:16 51°18.904 2°52.281 -999 3.322778 33.106338 25.377247
2006-03-30 07:10:20 51°18.918 2°52.281 -999 3.321847 33.097867 25.410956
2006-03-30 07:10:25 51°18.936 2°52.28 -999 3.321433 33.094203 25.444665
2006-03-30 07:10:30 51°18.953 2°52.28 -999 3.322157 33.103122 25.478375
2006-03-30 07:10:35 51°18.971 2°52.277 -999 3.31988 33.07978 25.512084
2006-03-30 07:10:40 51°18.988 2°52.278 -999 3.31988 33.07978 25.512084
2006-03-30 07:10:45 51°19.006 2°52.277 -999 3.318121 33.063069 25.512084
2006-03-30 07:10:50 51°19.024 2°52.275 -999 3.318949 33.071308 25.512084
2006-03-30 07:10:55 51°19.041 2°52.271 -999 3.31988 33.083426 25.545794
2006-03-30 07:11:00 51°19.059 2°52.269 -999 3.319156 33.079976 25.545794
2006-03-30 07:11:05 51°19.077 2°52.267 -999 3.318535 33.074023 25.579503
2006-03-30 07:11:10 51°19.094 2°52.266 -999 3.318535 33.074023 25.579503
2006-03-30 07:11:15 51°19.112 2°52.264 -999 3.317914 33.068982 25.545794
2006-03-30 07:11:20 51°19.13 2°52.263 -999 3.318328 33.073558 25.512084
2006-03-30 07:11:25 51°19.147 2°52.26 -999 3.316568 33.053198 25.512084
2006-03-30 07:11:30 51°19.165 2°52.26 -999 3.317086 33.063474 25.579503
2006-03-30 07:11:35 51°19.182 2°52.257 -999 3.317086 33.063474 25.579503
2006-03-30 07:11:40 51°19.2 2°52.256 -999 3.316465 33.062077 25.680631
2006-03-30 07:11:45 51°19.218 2°52.255 -999 3.315947 33.060001 25.714341
2006-03-30 07:11:50 51°19.235 2°52.253 -999 3.314912 33.050379 25.714341
2006-03-30 07:11:55 51°19.253 2°52.254 -999 3.315637 33.060214 25.714341
2006-03-30 07:12:00 51°19.271 2°52.251 -999 3.313878 33.045313 25.74805
2006-03-30 07:12:05 51°19.288 2°52.252 -999 3.313878 33.045313 25.74805
2006-03-30 07:12:10 51°19.306 2°52.247 -999 3.312222 33.031555 25.714341
2006-03-30 07:12:15 51°19.324 2°52.248 -999 3.31098 33.021462 25.680631
2006-03-30 07:12:20 51°19.341 2°52.245 -999 3.311911 33.033588 25.680631
2006-03-30 07:12:25 51°19.359 2°52.244 -999 3.310359 33.016416 25.680631
2006-03-30 07:12:30 51°19.376 2°52.241 -999 3.313257 33.050295 25.646922
2006-03-30 07:12:35 51°19.394 2°52.24 -999 3.311704 33.033121 25.613212
2006-03-30 07:12:40 51°19.411 2°52.236 -999 3.311704 33.033121 25.613212
2006-03-30 07:12:45 51°19.429 2°52.236 -999 3.311497 33.02992 25.545794
2006-03-30 07:12:50 51°19.446 2°52.233 -999 3.312325 33.039991 25.478375
2006-03-30 07:12:55 51°19.464 2°52.233 -999 3.310152 33.016859 25.410956
2006-03-30 07:13:00 51°19.481 2°52.231 -999 3.30891 33.005853 25.377247
2006-03-30 07:13:05 51°19.499 2°52.23 -999 3.308496 33.004916 25.377247
2006-03-30 07:13:10 51°19.516 2°52.228 -999 3.308496 33.004916 25.377247
2006-03-30 07:13:15 51°19.534 2°52.227 -999 3.308185 33.006035 25.377247
2006-03-30 07:13:20 51°19.551 2°52.226 -999 3.306426 32.992033 25.377247
2006-03-30 07:13:26 51°19.572 2°52.227 -999 3.304873 32.983049 25.309828
2006-03-30 07:13:30 51°19.586 2°52.224 -999 3.302286 32.965339 25.2087
2006-03-30 07:13:35 51°19.603 2°52.224 -999 3.302286 32.965339 25.2087
2006-03-30 07:13:40 51°19.62 2°52.222 -999 3.30032 32.951764 25.141281
2006-03-30 07:13:45 51°19.638 2°52.221 -999 3.297318 32.925815 25.107571
2006-03-30 07:13:50 51°19.655 2°52.219 -999 3.294835 32.907408 25.107571
2006-03-30 07:13:55 51°19.673 2°52.217 -999 3.287797 32.842196 25.040153
2006-03-30 07:14:00 51°19.69 2°52.216 -999 3.28521 32.824437 25.006443
2006-03-30 07:14:04 51°19.704 2°52.216 -999 3.280967 32.789232 25.006443
2006-03-30 07:14:10 51°19.724 2°52.212 -999 3.280967 32.789232 25.006443
2006-03-30 07:14:15 51°19.742 2°52.209 -999 3.278897 32.778094 25.040153
2006-03-30 07:14:20 51°19.759 2°52.207 -999 3.275482 32.750224 25.107571
2006-03-30 07:14:25 51°19.776 2°52.205 -999 3.27424 32.743715 25.2087
2006-03-30 07:14:30 51°19.794 2°52.204 -999 3.271342 32.718845 25.276118
2006-03-30 07:14:35 51°19.811 2°52.204 -999 3.270204 32.70985 25.309828
2006-03-30 07:14:40 51°19.829 2°52.201 -999 3.270204 32.70985 25.309828
2006-03-30 07:14:45 51°19.846 2°52.199 -999 3.271446 32.728155 25.377247
2006-03-30 07:14:50 51°19.863 2°52.197 -999 3.266064 32.671202 25.444665
2006-03-30 07:14:55 51°19.881 2°52.195 -999 3.265547 32.665465 25.444665
2006-03-30 07:15:00 51°19.898 2°52.191 -999 3.263995 32.650065 25.444665
2006-03-30 07:15:05 51°19.916 2°52.191 -999 3.263995 32.650065 25.444665
2006-03-30 07:15:10 51°19.934 2°52.19 -999 3.263167 32.646316 25.478375
2006-03-30 07:15:15 51°19.951 2°52.186 -999 3.260062 32.619127 25.444665
2006-03-30 07:15:20 51°19.969 2°52.186 -999 3.259234 32.618088 25.410956
2006-03-30 07:15:25 51°19.987 2°52.183 -999 3.26089 32.63917 25.309828
2006-03-30 07:15:30 51°20.005 2°52.182 -999 3.256751 32.59687 25.2087
2006-03-30 07:15:35 51°20.023 2°52.184 -999 3.256854 32.604351 25.141281
2006-03-30 07:15:40 51°20.04 2°52.182 -999 3.256854 32.604351 25.141281
2006-03-30 07:15:45 51°20.058 2°52.18 -999 3.255199 32.586885 25.040153
2006-03-30 07:15:50 51°20.076 2°52.181 -999 3.253646 32.57328 24.905315
2006-03-30 07:15:55 51°20.093 2°52.181 -999 3.252611 32.563606 24.804187
2006-03-30 07:16:00 51°20.111 2°52.181 -999 3.250956 32.54614 24.736768
2006-03-30 07:16:05 51°20.128 2°52.18 -999 3.252094 32.554251 24.669349
2006-03-30 07:16:10 51°20.145 2°52.182 -999 3.252094 32.554251 24.669349
2006-03-30 07:16:15 51°20.163 2°52.182 -999 3.253232 32.565072 24.60193
2006-03-30 07:16:20 51°20.18 2°52.183 -999 3.254267 32.57384 24.534512
2006-03-30 07:16:25 51°20.198 2°52.181 -999 3.252715 32.556622 24.534512
2006-03-30 07:16:30 51°20.214 2°52.182 -999 3.255923 32.592208 24.568221
2006-03-30 07:16:35 51°20.232 2°52.183 -999 3.256647 32.604769 24.63564
2006-03-30 07:16:40 51°20.249 2°52.183 -999 3.256647 32.604769 24.63564
2006-03-30 07:16:45 51°20.267 2°52.185 -999 3.258303 32.626763 24.703059
2006-03-30 07:16:50 51°20.284 2°52.183 -999 3.260373 32.651546 24.770477
2006-03-30 07:16:55 51°20.301 2°52.183 -999 3.260477 32.651789 24.804187
2006-03-30 07:17:00 51°20.319 2°52.182 -999 3.260684 32.655899 24.871606
2006-03-30 07:17:05 51°20.336 2°52.183 -999 3.260684 32.655899 24.871606
2006-03-30 07:17:10 51°20.354 2°52.183 -999 3.261408 32.672102 24.905315
2006-03-30 07:17:15 51°20.371 2°52.185 -999 3.260684 32.668595 24.905315
2006-03-30 07:17:20 51°20.388 2°52.186 -999 3.265134 32.717105 24.871606
2006-03-30 07:17:25 51°20.406 2°52.186 -999 3.26058 32.670168 24.871606
2006-03-30 07:17:30 51°20.424 2°52.184 -999 3.261822 32.685774 24.871606
2006-03-30 07:17:35 51°20.441 2°52.184 -999 3.259649 32.660732 24.871606
2006-03-30 07:17:40 51°20.458 2°52.182 -999 3.259649 32.660732 24.871606
2006-03-30 07:17:45 51°20.477 2°52.18 -999 3.261512 32.682326 24.837896
2006-03-30 07:17:50 51°20.494 2°52.179 -999 3.259959 32.669624 24.804187
2006-03-30 07:17:55 51°20.511 2°52.179 -999 3.259545 32.667748 24.770477
2006-03-30 07:18:00 51°20.529 2°52.179 -999 3.258821 32.661517 24.63564
2006-03-30 07:18:05 51°20.546 2°52.177 -999 3.260063 32.677127 24.534512
2006-03-30 07:18:10 51°20.563 2°52.178 -999 3.260063 32.677127 24.534512
2006-03-30 07:18:15 51°20.581 2°52.178 -999 3.257993 32.654135 24.399674
2006-03-30 07:18:20 51°20.598 2°52.177 -999 3.257165 32.641311 24.298546
2006-03-30 07:18:25 51°20.616 2°52.176 -999 3.256337 32.63393 24.163708
2006-03-30 07:18:30 51°20.633 2°52.177 -999 3.252508 32.593217 24.096289
2006-03-30 07:18:35 51°20.651 2°52.177 -999 3.250956 32.57779 23.995161
2006-03-30 07:18:40 51°20.668 2°52.174 -999 3.250956 32.57779 23.995161
2006-03-30 07:18:45 51°20.685 2°52.176 -999 3.249818 32.566054 23.927742
2006-03-30 07:18:50 51°20.702 2°52.176 -999 3.247541 32.538061 23.894033
2006-03-30 07:18:55 51°20.72 2°52.178 -999 3.249611 32.558327 23.860324
2006-03-30 07:19:00 51°20.737 2°52.178 -999 3.247024 32.528701 23.826614
2006-03-30 07:19:05 51°20.754 2°52.178 -999 3.247024 32.528701 23.826614
2006-03-30 07:19:10 51°20.772 2°52.179 -999 3.244126 32.495634 23.759195
2006-03-30 07:19:15 51°20.789 2°52.18 -999 3.243919 32.49424 23.725486
2006-03-30 07:19:20 51°20.806 2°52.182 -999 3.239676 32.451658 23.691777
2006-03-30 07:19:25 51°20.824 2°52.182 -999 3.240194 32.458303 23.725486
2006-03-30 07:19:31 51°20.845 2°52.182 -999 3.235433 32.404573 23.691777
2006-03-30 07:19:35 51°20.859 2°52.182 -999 3.234812 32.398583 23.691777
2006-03-30 07:19:40 51°20.877 2°52.181 -999 3.234812 32.398583 23.691777
2006-03-30 07:19:45 51°20.894 2°52.185 -999 3.233674 32.388652 23.691777
2006-03-30 07:19:50 51°20.912 2°52.184 -999 3.228914 32.335835 23.691777
2006-03-30 07:19:55 51°20.929 2°52.187 -999 3.230984 32.356999 23.725486
2006-03-30 07:20:00 51°20.946 2°52.187 -999 3.229121 32.333639 23.725486
2006-03-30 07:20:05 51°20.963 2°52.189 -999 3.227155 32.310932 23.759195
2006-03-30 07:20:10 51°20.98 2°52.191 -999 3.227155 32.310932 23.759195
2006-03-30 07:20:15 51°20.998 2°52.195 -999 3.228707 32.328149 23.759195
2006-03-30 07:20:20 51°21.015 2°52.196 -999 3.227258 32.312079 23.759195
2006-03-30 07:20:25 51°21.032 2°52.2 -999 3.227258 32.309387 23.792905
2006-03-30 07:20:30 51°21.049 2°52.204 -999 3.222912 32.262982 23.826614
2006-03-30 07:20:35 51°21.065 2°52.211 -999 3.222912 32.262982 23.826614
2006-03-30 07:20:40 51°21.083 2°52.214 -999 3.224361 32.27815 23.826614
2006-03-30 07:20:45 51°21.1 2°52.219 -999 3.222809 32.261834 23.826614
2006-03-30 07:20:50 51°21.117 2°52.223 -999 3.223119 32.263484 23.826614
2006-03-30 07:20:55 51°21.133 2°52.228 -999 3.220946 32.240284 23.860324
2006-03-30 07:21:00 51°21.15 2°52.233 -999 3.217842 32.20855 23.894033
2006-03-30 07:21:05 51°21.167 2°52.236 -999 3.219394 32.22576 23.894033
2006-03-30 07:21:10 51°21.184 2°52.242 -999 3.219394 32.22576 23.894033
2006-03-30 07:21:15 51°21.201 2°52.243 -999 3.215979 32.188794 23.927742
2006-03-30 07:21:20 51°21.218 2°52.25 -999 3.213806 32.163811 23.961452
2006-03-30 07:21:25 51°21.235 2°52.253 -999 3.21898 32.222961 23.995161
2006-03-30 07:21:30 51°21.252 2°52.257 -999 3.212771 32.153234 23.995161
2006-03-30 07:21:35 51°21.268 2°52.264 -999 3.213599 32.16241 24.028871
2006-03-30 07:21:40 51°21.285 2°52.269 -999 3.213599 32.16241 24.028871
2006-03-30 07:21:45 51°21.301 2°52.277 -999 3.212875 32.151701 24.06258
2006-03-30 07:21:50 51°21.319 2°52.282 -999 3.215255 32.178976 24.06258
2006-03-30 07:21:55 51°21.336 2°52.288 -999 3.211736 32.139978 24.096289
2006-03-30 07:22:00 51°21.352 2°52.295 -999 3.210702 32.130294 24.129999
2006-03-30 07:22:05 51°21.368 2°52.301 -999 3.208736 32.112073 24.163708
2006-03-30 07:22:10 51°21.385 2°52.308 -999 3.208736 32.112073 24.163708
2006-03-30 07:22:15 51°21.401 2°52.314 -999 3.208425 32.109524 24.163708
2006-03-30 07:22:20 51°21.418 2°52.32 -999 3.212978 32.164464 24.163708
2006-03-30 07:22:25 51°21.435 2°52.327 -999 3.208529 32.120488 24.197418
2006-03-30 07:22:30 51°21.452 2°52.332 -999 3.20708 32.107996 24.231127
2006-03-30 07:22:35 51°21.469 2°52.34 -999 3.20708 32.107996 24.231127
2006-03-30 07:22:40 51°21.486 2°52.344 -999 3.207598 32.117304 24.264836
2006-03-30 07:22:45 51°21.503 2°52.351 -999 3.211633 32.167427 24.332255
2006-03-30 07:22:50 51°21.52 2°52.356 -999 3.207701 32.130064 24.365965
2006-03-30 07:22:55 51°21.537 2°52.362 -999 3.205321 32.109915 24.365965
2006-03-30 07:23:00 51°21.554 2°52.366 -999 3.205942 32.121271 24.365965
2006-03-30 07:23:05 51°21.57 2°52.374 -999 3.206667 32.132884 24.399674
2006-03-30 07:23:10 51°21.587 2°52.381 -999 3.206667 32.132884 24.399674
2006-03-30 07:23:15 51°21.603 2°52.387 -999 3.201907 32.084528 24.399674
2006-03-30 07:23:20 51°21.619 2°52.398 -999 3.205321 32.126895 24.399674
2006-03-30 07:23:25 51°21.636 2°52.402 -999 3.202942 32.103159 24.399674
2006-03-30 07:23:30 51°21.652 2°52.413 -999 3.199837 32.066026 24.399674
2006-03-30 07:23:35 51°21.668 2°52.419 -999 3.203562 32.106476 24.399674
2006-03-30 07:23:40 51°21.685 2°52.427 -999 3.203562 32.106476 24.399674
2006-03-30 07:23:45 51°21.702 2°52.435 -999 3.197871 32.043317 24.433383
2006-03-30 07:23:50 51°21.718 2°52.444 -999 3.198699 32.048934 24.399674
2006-03-30 07:23:55 51°21.735 2°52.449 -999 3.198389 32.043707 24.399674
2006-03-30 07:24:00 51°21.751 2°52.457 -999 3.201079 32.069095 24.365965
2006-03-30 07:24:05 51°21.767 2°52.464 -999 3.201079 32.069095 24.365965
2006-03-30 07:24:10 51°21.783 2°52.471 -999 3.195491 32.008892 24.332255
2006-03-30 07:24:15 51°21.799 2°52.48 -999 3.192697 31.978795 24.365965
2006-03-30 07:24:20 51°21.816 2°52.487 -999 3.193732 31.992052 24.332255
2006-03-30 07:24:26 51°21.836 2°52.496 -999 3.190111 31.952773 24.332255
2006-03-30 07:24:30 51°21.848 2°52.503 -999 3.190938 31.962843 24.332255
2006-03-30 07:24:35 51°21.864 2°52.511 -999 3.187213 31.92242 24.332255
2006-03-30 07:24:40 51°21.88 2°52.519 -999 3.187213 31.92242 24.332255
2006-03-30 07:24:45 51°21.896 2°52.526 -999 3.187938 31.932229 24.332255
2006-03-30 07:24:50 51°21.912 2°52.536 -999 3.185661 31.906984 24.298546
2006-03-30 07:24:55 51°21.929 2°52.542 -999 3.183695 31.886071 24.332255
2006-03-30 07:25:00 51°21.945 2°52.552 -999 3.182764 31.876632 24.332255
2006-03-30 07:25:06 51°21.965 2°52.559 -999 3.183075 31.879186 24.332255
2006-03-30 07:25:10 51°21.978 2°52.568 -999 3.183075 31.879186 24.332255
2006-03-30 07:25:15 51°21.994 2°52.574 -999 3.181316 31.859682 24.332255
2006-03-30 07:25:20 51°22.011 2°52.585 -999 3.180591 31.850765 24.332255
2006-03-30 07:25:25 51°22.029 2°52.589 -999 3.178108 31.821464 24.332255
2006-03-30 07:25:30 51°22.044 2°52.6 -999 3.179453 31.836375 24.332255
2006-03-30 07:25:35 51°22.061 2°52.607 -999 3.177694 31.815105 24.332255
2006-03-30 07:25:40 51°22.078 2°52.613 -999 3.177694 31.815105 24.332255
2006-03-30 07:25:45 51°22.095 2°52.621 -999 3.177384 31.81078 24.332255
2006-03-30 07:25:50 51°22.111 2°52.628 -999 3.176659 31.802752 24.332255
2006-03-30 07:25:55 51°22.128 2°52.636 -999 3.179763 31.834501 24.365965
2006-03-30 07:26:00 51°22.145 2°52.644 -999 3.176659 31.799213 24.365965
2006-03-30 07:26:05 51°22.161 2°52.651 -999 3.176659 31.799213 24.365965
2006-03-30 07:26:10 51°22.177 2°52.66 -999 3.176039 31.792333 24.365965
2006-03-30 07:26:15 51°22.194 2°52.666 -999 3.173245 31.758725 24.365965
2006-03-30 07:26:20 51°22.211 2°52.675 -999 3.175314 31.78077 24.399674
2006-03-30 07:26:25 51°22.226 2°52.685 -999 3.177798 31.809171 24.433383
2006-03-30 07:26:30 51°22.243 2°52.692 -999 3.169313 31.71605 24.433383
2006-03-30 07:26:35 51°22.26 2°52.702 -999 3.171072 31.73377 24.433383
2006-03-30 07:26:40 51°22.276 2°52.708 -999 3.171072 31.73377 24.433383
2006-03-30 07:26:45 51°22.292 2°52.718 -999 3.167347 31.689866 24.433383
2006-03-30 07:26:50 51°22.31 2°52.726 -999 3.168796 31.703263 24.433383
2006-03-30 07:26:55 51°22.327 2°52.732 -999 3.167761 31.691805 24.467093
2006-03-30 07:27:00 51°22.344 2°52.737 -999 3.168589 31.700972 24.467093
2006-03-30 07:27:05 51°22.361 2°52.746 -999 3.167761 31.691805 24.467093
2006-03-30 07:27:10 51°22.377 2°52.751 -999 3.167761 31.691805 24.467093
2006-03-30 07:27:15 51°22.393 2°52.763 -999 3.167037 31.685547 24.500802
2006-03-30 07:27:20 51°22.411 2°52.765 -999 3.165278 31.66783 24.500802
2006-03-30 07:27:25 51°22.427 2°52.776 -999 3.172314 31.744876 24.534512
2006-03-30 07:27:30 51°22.444 2°52.781 -999 3.162588 31.63716 24.534512
2006-03-30 07:27:35 51°22.46 2°52.792 -999 3.175728 31.783587 24.534512
2006-03-30 07:27:40 51°22.477 2°52.798 -999 3.175728 31.783587 24.534512
2006-03-30 07:27:45 51°22.493 2°52.808 -999 3.162381 31.634869 24.568221
2006-03-30 07:27:50 51°22.509 2°52.816 -999 3.164243 31.654611 24.534512
2006-03-30 07:27:55 51°22.527 2°52.823 -999 3.163933 31.649413 24.534512
2006-03-30 07:28:00 51°22.543 2°52.832 -999 3.161553 31.622186 24.534512
2006-03-30 07:28:05 51°22.559 2°52.84 -999 3.165381 31.664572 24.534512
2006-03-30 07:28:10 51°22.576 2°52.848 -999 3.165381 31.664572 24.534512
2006-03-30 07:28:15 51°22.593 2°52.854 -999 3.163829 31.648267 24.534512
2006-03-30 07:28:20 51°22.609 2°52.863 -999 3.166002 31.674969 24.500802
2006-03-30 07:28:25 51°22.626 2°52.871 -999 3.163829 31.650908 24.500802
2006-03-30 07:28:30 51°22.642 2°52.88 -999 3.163208 31.644914 24.467093
2006-03-30 07:28:35 51°22.659 2°52.888 -999 3.161346 31.626052 24.467093
2006-03-30 07:28:40 51°22.675 2°52.897 -999 3.161346 31.626052 24.467093
2006-03-30 07:28:45 51°22.692 2°52.905 -999 3.161863 31.63178 24.467093
2006-03-30 07:28:50 51°22.708 2°52.913 -999 3.16207 31.632312 24.467093
2006-03-30 07:28:55 51°22.725 2°52.921 -999 3.164657 31.661835 24.433383
2006-03-30 07:29:00 51°22.742 2°52.927 -999 3.163002 31.643503 24.467093
2006-03-30 07:29:05 51°22.758 2°52.939 -999 3.161036 31.619976 24.433383
2006-03-30 07:29:10 51°22.775 2°52.944 -999 3.161036 31.619976 24.433383
2006-03-30 07:29:15 51°22.792 2°52.957 -999 3.161863 31.628261 24.467093
2006-03-30 07:29:20 51°22.809 2°52.962 -999 3.161346 31.620774 24.467093
2006-03-30 07:29:25 51°22.825 2°52.973 -999 3.16414 31.649944 24.467093
2006-03-30 07:29:30 51°22.842 2°52.978 -999 3.161449 31.616644 24.467093
2006-03-30 07:29:35 51°22.858 2°52.99 -999 3.161449 31.616644 24.467093
2006-03-30 07:29:40 51°22.875 2°52.995 -999 3.162174 31.622023 24.467093
2006-03-30 07:29:45 51°22.891 2°53.008 -999 3.163001 31.630306 24.500802
2006-03-30 07:29:50 51°22.908 2°53.013 -999 3.163001 31.629426 24.467093
2006-03-30 07:29:55 51°22.924 2°53.025 -999 3.162588 31.623966 24.467093
2006-03-30 07:30:00 51°22.941 2°53.031 -999 3.16476 31.647136 24.467093
2006-03-30 07:30:06 51°22.961 2°53.042 -999 3.164864 31.647402 24.467093
2006-03-30 07:30:10 51°22.974 2°53.048 -999 3.164864 31.647402 24.467093
2006-03-30 07:30:15 51°22.991 2°53.055 -999 3.165174 31.649957 24.500802
2006-03-30 07:30:20 51°23.007 2°53.064 -999 3.16476 31.646256 24.500802
2006-03-30 07:30:25 51°23.024 2°53.072 -999 3.164036 31.640879 24.500802
2006-03-30 07:30:30 51°23.041 2°53.08 -999 3.163105 31.632331 24.534512
2006-03-30 07:30:35 51°23.057 2°53.088 -999 3.162174 31.624661 24.534512
2006-03-30 07:30:40 51°23.074 2°53.098 -999 3.162174 31.624661 24.534512
2006-03-30 07:30:44 51°23.088 2°53.102 -999 3.157621 31.576907 24.534512
2006-03-30 07:30:50 51°23.107 2°53.113 -999 3.162277 31.632843 24.568221
2006-03-30 07:30:55 51°23.124 2°53.12 -999 3.163105 31.645529 24.568221
2006-03-30 07:31:00 51°23.141 2°53.13 -999 3.161657 31.632129 24.60193
2006-03-30 07:31:05 51°23.158 2°53.135 -999 3.161036 31.624374 24.60193
2006-03-30 07:31:10 51°23.174 2°53.147 -999 3.161036 31.624374 24.60193
2006-03-30 07:31:15 51°23.191 2°53.152 -999 3.162588 31.63804 24.60193
2006-03-30 07:31:20 51°23.208 2°53.16 -999 3.163312 31.64694 24.63564
2006-03-30 07:31:25 51°23.224 2°53.168 -999 3.162795 31.642972 24.63564
2006-03-30 07:31:30 51°23.241 2°53.175 -999 3.162691 31.641826 24.703059
2006-03-30 07:31:35 51°23.256 2°53.186 -999 3.162691 31.641826 24.703059
2006-03-30 07:31:40 51°23.274 2°53.191 -999 3.161967 31.634686 24.736768
2006-03-30 07:31:45 51°23.289 2°53.202 -999 3.163415 31.653369 24.804187
2006-03-30 07:31:50 51°23.306 2°53.206 -999 3.160932 31.632028 24.837896
2006-03-30 07:31:55 51°23.322 2°53.217 -999 3.162898 31.667904 24.871606
2006-03-30 07:32:00 51°23.338 2°53.223 -999 3.162071 31.68343 24.939024
2006-03-30 07:32:05 51°23.354 2°53.232 -999 3.160209 31.697224 24.939024
2006-03-30 07:32:10 51°23.37 2°53.237 -999 3.160209 31.697224 24.939024
2006-03-30 07:32:15 51°23.386 2°53.247 -999 3.159071 31.723531 24.972734
2006-03-30 07:32:20 51°23.403 2°53.253 -999 3.155347 31.713142 25.006443
2006-03-30 07:32:25 51°23.418 2°53.265 -999 3.155968 31.752015 25.006443
2006-03-30 07:32:30 51°23.435 2°53.269 -999 3.153382 31.754328 25.006443
2006-03-30 07:32:35 51°23.45 2°53.284 -999 3.15421 31.786716 25.006443
2006-03-30 07:32:40 51°23.468 2°53.286 -999 3.15421 31.786716 25.006443
2006-03-30 07:32:45 51°23.483 2°53.298 -999 3.153279 31.787029 24.972734
2006-03-30 07:32:50 51°23.499 2°53.303 -999 3.149554 31.75795 24.972734
2006-03-30 07:32:55 51°23.515 2°53.315 -999 3.150278 31.774059 24.939024
2006-03-30 07:33:00 51°23.532 2°53.319 -999 3.150692 31.785819 24.939024
2006-03-30 07:33:04 51°23.544 2°53.328 -999 3.150692 31.785819 24.939024
2006-03-30 07:33:10 51°23.563 2°53.335 -999 3.149761 31.779885 24.905315
2006-03-30 07:33:15 51°23.579 2°53.343 -999 3.153589 31.82979 24.871606
2006-03-30 07:33:20 51°23.595 2°53.353 -999 3.147899 31.775155 24.871606
2006-03-30 07:33:25 51°23.611 2°53.361 -999 3.148727 31.787975 24.837896
2006-03-30 07:33:30 51°23.626 2°53.37 -999 3.149968 31.802742 24.837896
2006-03-30 07:33:35 51°23.643 2°53.378 -999 3.148623 31.791287 24.804187
2006-03-30 07:33:40 51°23.658 2°53.387 -999 3.148623 31.791287 24.804187
2006-03-30 07:33:45 51°23.675 2°53.394 -999 3.147692 31.780882 24.804187
2006-03-30 07:33:50 51°23.691 2°53.404 -999 3.148209 31.78845 24.804187
2006-03-30 07:33:55 51°23.707 2°53.41 -999 3.146244 31.76559 24.804187
2006-03-30 07:34:00 51°23.723 2°53.423 -999 3.150175 31.807737 24.770477
2006-03-30 07:34:05 51°23.74 2°53.426 -999 3.152865 31.838696 24.736768
2006-03-30 07:34:10 51°23.756 2°53.437 -999 3.152865 31.838696 24.736768
2006-03-30 07:34:15 51°23.774 2°53.439 -999 3.148106 31.785507 24.736768
2006-03-30 07:34:20 51°23.789 2°53.45 -999 3.151934 31.827393 24.703059
2006-03-30 07:34:25 51°23.806 2°53.456 -999 3.150072 31.810157 24.736768
2006-03-30 07:34:30 51°23.822 2°53.464 -999 3.151624 31.832873 24.770477
2006-03-30 07:34:35 51°23.837 2°53.473 -999 3.147692 31.795183 24.804187
2006-03-30 07:34:40 51°23.854 2°53.477 -999 3.147692 31.795183 24.804187
2006-03-30 07:34:45 51°23.869 2°53.487 -999 3.146658 31.79077 24.837896
2006-03-30 07:34:50 51°23.885 2°53.495 -999 3.145934 31.794301 24.837896
2006-03-30 07:34:55 51°23.901 2°53.504 -999 3.141278 31.754743 24.905315
2006-03-30 07:35:00 51°23.917 2°53.513 -999 3.141692 31.767422 24.905315
2006-03-30 07:35:05 51°23.933 2°53.521 -999 3.138485 31.734216 24.905315
2006-03-30 07:35:09 51°23.946 2°53.526 -999 3.138485 31.734216 24.905315
2006-03-30 07:35:15 51°23.964 2°53.539 -999 3.14252 31.78116 24.939024
2006-03-30 07:35:20 51°23.98 2°53.547 -999 3.139312 31.748843 24.939024
2006-03-30 07:35:25 51°23.996 2°53.556 -999 3.138692 31.744578 24.939024
2006-03-30 07:35:30 51°24.012 2°53.563 -999 3.136622 31.724101 24.939024
2006-03-30 07:35:35 51°24.028 2°53.574 -999 3.135381 31.711993 24.905315
2006-03-30 07:35:40 51°24.044 2°53.58 -999 3.135381 31.711993 24.905315
2006-03-30 07:35:45 51°24.059 2°53.588 -999 3.138278 31.747997 24.905315
2006-03-30 07:35:50 51°24.075 2°53.599 -999 3.136105 31.727251 24.871606
2006-03-30 07:35:55 51°24.092 2°53.606 -999 3.135278 31.717985 24.871606
2006-03-30 07:36:00 51°24.107 2°53.612 -999 3.13714 31.743307 24.837896
2006-03-30 07:36:04 51°24.119 2°53.621 -999 3.134864 31.723188 24.804187
2006-03-30 07:36:10 51°24.139 2°53.63 -999 3.134864 31.723188 24.804187
2006-03-30 07:36:15 51°24.155 2°53.635 -999 3.136002 31.742197 24.770477
2006-03-30 07:36:20 51°24.17 2°53.647 -999 3.136519 31.757842 24.736768
2006-03-30 07:36:25 51°24.187 2°53.647 -999 3.131346 31.70436 24.703059
2006-03-30 07:36:30 51°24.203 2°53.657 -999 3.134657 31.749516 24.669349
2006-03-30 07:36:35 51°24.219 2°53.662 -999 3.133933 31.749463 24.63564
2006-03-30 07:36:40 51°24.235 2°53.667 -999 3.133933 31.749463 24.63564
2006-03-30 07:36:45 51°24.252 2°53.671 -999 3.131554 31.729954 24.60193
2006-03-30 07:36:50 51°24.268 2°53.678 -999 3.13114 31.73069 24.60193
2006-03-30 07:36:55 51°24.285 2°53.685 -999 3.130209 31.723833 24.568221
2006-03-30 07:37:00 51°24.3 2°53.689 -999 3.129278 31.720559 24.534512
2006-03-30 07:37:05 51°24.316 2°53.699 -999 3.129692 31.730579 24.500802
2006-03-30 07:37:10 51°24.333 2°53.701 -999 3.129692 31.730579 24.500802
2006-03-30 07:37:15 51°24.348 2°53.709 -999 3.129692 31.735063 24.467093
2006-03-30 07:37:20 51°24.365 2°53.715 -999 3.132485 31.774489 24.467093
2006-03-30 07:37:25 51°24.382 2°53.721 -999 3.128864 31.73654 24.433383
2006-03-30 07:37:29 51°24.395 2°53.725 -999 3.131451 31.771859 24.399674
2006-03-30 07:37:35 51°24.414 2°53.731 -999 3.129899 31.755334 24.365965
2006-03-30 07:37:40 51°24.431 2°53.738 -999 3.129899 31.755334 24.365965
2006-03-30 07:37:45 51°24.448 2°53.741 -999 3.128864 31.74731 24.332255
2006-03-30 07:37:50 51°24.464 2°53.746 -999 3.127002 31.729095 24.332255
2006-03-30 07:37:55 51°24.481 2°53.748 -999 3.127726 31.737226 24.298546
2006-03-30 07:38:00 51°24.498 2°53.753 -999 3.127105 31.733847 24.298546
2006-03-30 07:38:05 51°24.514 2°53.758 -999 3.126588 31.731629 24.264836
2006-03-30 07:38:10 51°24.531 2°53.762 -999 3.126588 31.731629 24.264836
2006-03-30 07:38:15 51°24.548 2°53.769 -999 3.128864 31.758987 24.264836
2006-03-30 07:38:20 51°24.564 2°53.772 -999 3.125554 31.723601 24.231127
2006-03-30 07:38:25 51°24.581 2°53.782 -999 3.126174 31.728777 24.231127
2006-03-30 07:38:30 51°24.598 2°53.782 -999 3.128864 31.755393 24.231127
2006-03-30 07:38:35 51°24.614 2°53.79 -999 3.128864 31.755393 24.231127
2006-03-30 07:38:40 51°24.631 2°53.792 -999 3.129485 31.765061 24.197418
2006-03-30 07:38:45 51°24.648 2°53.799 -999 3.12814 31.749057 24.163708
2006-03-30 07:38:50 51°24.664 2°53.8 -999 3.128554 31.751908 24.163708
2006-03-30 07:38:55 51°24.681 2°53.808 -999 3.128243 31.748422 24.163708
2006-03-30 07:39:00 51°24.697 2°53.809 -999 3.125243 31.717423 24.129999
2006-03-30 07:39:05 51°24.713 2°53.82 -999 3.125657 31.725661 24.129999
2006-03-30 07:39:10 51°24.729 2°53.824 -999 3.125657 31.725661 24.129999
2006-03-30 07:39:15 51°24.745 2°53.83 -999 3.128864 31.763481 24.129999
2006-03-30 07:39:20 51°24.761 2°53.836 -999 3.12783 31.752758 24.096289
2006-03-30 07:39:26 51°24.78 2°53.845 -999 3.129588 31.76802 24.096289
2006-03-30 07:39:30 51°24.794 2°53.849 -999 3.126381 31.72392 24.06258
2006-03-30 07:39:35 51°24.809 2°53.857 -999 3.127416 31.736434 24.06258
2006-03-30 07:39:40 51°24.826 2°53.861 -999 3.127416 31.736434 24.06258
2006-03-30 07:39:45 51°24.842 2°53.866 -999 3.129692 31.760196 24.06258
2006-03-30 07:39:50 51°24.858 2°53.872 -999 3.130416 31.766531 24.028871
2006-03-30 07:39:55 51°24.875 2°53.876 -999 3.130106 31.76664 24.028871
2006-03-30 07:40:00 51°24.891 2°53.884 -999 3.133003 31.802773 24.06258
2006-03-30 07:40:05 51°24.907 2°53.888 -999 3.132899 31.80521 24.028871
2006-03-30 07:40:10 51°24.924 2°53.895 -999 3.132899 31.80521 24.028871
2006-03-30 07:40:16 51°24.943 2°53.906 -999 3.128347 31.754974 24.028871
2006-03-30 07:40:20 51°24.957 2°53.904 -999 3.129278 31.765433 24.06258
2006-03-30 07:40:25 51°24.973 2°53.91 -999 3.132072 31.796811 24.06258
2006-03-30 07:40:30 51°24.99 2°53.915 -999 3.131658 31.793962 24.06258
2006-03-30 07:40:35 51°25.007 2°53.919 -999 3.131865 31.796286 24.096289
2006-03-30 07:40:40 51°25.023 2°53.924 -999 3.131865 31.796286 24.096289
2006-03-30 07:40:45 51°25.04 2°53.929 -999 3.132692 31.803785 24.06258
2006-03-30 07:40:50 51°25.056 2°53.934 -999 3.133416 31.811021 24.096289
2006-03-30 07:40:55 51°25.073 2°53.941 -999 3.131658 31.793062 24.096289
2006-03-30 07:41:00 51°25.09 2°53.946 -999 3.13114 31.78905 24.096289
2006-03-30 07:41:05 51°25.106 2°53.951 -999 3.131761 31.797823 24.06258
2006-03-30 07:41:10 51°25.123 2°53.959 -999 3.131761 31.797823 24.06258
2006-03-30 07:41:15 51°25.14 2°53.961 -999 3.130106 31.781924 24.06258
2006-03-30 07:41:20 51°25.156 2°53.969 -999 3.134762 31.834238 24.028871
2006-03-30 07:41:25 51°25.173 2°53.972 -999 3.13321 31.816799 23.995161
2006-03-30 07:41:30 51°25.19 2°53.98 -999 3.133106 31.813835 23.961452
2006-03-30 07:41:35 51°25.207 2°53.985 -999 3.133623 31.816947 23.927742
2006-03-30 07:41:40 51°25.224 2°53.992 -999 3.133623 31.816947 23.927742
2006-03-30 07:41:45 51°25.24 2°53.998 -999 3.134037 31.815294 23.927742
2006-03-30 07:41:50 51°25.257 2°54.003 -999 3.133934 31.808733 23.894033
2006-03-30 07:41:55 51°25.274 2°54.011 -999 3.135796 31.826049 23.860324
2006-03-30 07:42:00 51°25.291 2°54.015 -999 3.134451 31.810044 23.860324
2006-03-30 07:42:05 51°25.307 2°54.024 -999 3.134451 31.810044 23.860324
2006-03-30 07:42:10 51°25.324 2°54.026 -999 3.134554 31.809406 23.826614
2006-03-30 07:42:15 51°25.341 2°54.033 -999 3.13921 31.858091 23.826614
2006-03-30 07:42:20 51°25.358 2°54.037 -999 3.1389 31.851002 23.826614
2006-03-30 07:42:25 51°25.375 2°54.044 -999 3.137244 31.828814 23.792905
2006-03-30 07:42:30 51°25.392 2°54.05 -999 3.141693 31.877867 23.826614
2006-03-30 07:42:35 51°25.409 2°54.053 -999 3.1389 31.8447 23.826614
2006-03-30 07:42:40 51°25.425 2°54.061 -999 3.1389 31.8447 23.826614
2006-03-30 07:42:45 51°25.442 2°54.063 -999 3.13383 31.786891 23.826614
2006-03-30 07:42:50 51°25.457 2°54.071 -999 3.139417 31.849608 23.860324
2006-03-30 07:42:55 51°25.473 2°54.076 -999 3.138175 31.835669 23.860324
2006-03-30 07:43:00 51°25.489 2°54.083 -999 3.139831 31.848852 23.860324
2006-03-30 07:43:05 51°25.505 2°54.088 -999 3.141176 31.857649 23.860324
2006-03-30 07:43:10 51°25.521 2°54.096 -999 3.141176 31.857649 23.860324
2006-03-30 07:43:15 51°25.538 2°54.099 -999 3.142831 31.87713 23.860324
2006-03-30 07:43:20 51°25.554 2°54.107 -999 3.143866 31.89325 23.860324
2006-03-30 07:43:25 51°25.571 2°54.112 -999 3.1419 31.877487 23.860324
2006-03-30 07:43:30 51°25.588 2°54.116 -999 3.140969 31.872438 23.860324
2006-03-30 07:43:35 51°25.604 2°54.124 -999 3.142935 31.899024 23.860324
2006-03-30 07:43:40 51°25.621 2°54.127 -999 3.142935 31.899024 23.860324
2006-03-30 07:43:45 51°25.638 2°54.136 -999 3.142624 31.895537 23.826614
2006-03-30 07:43:50 51°25.655 2°54.138 -999 3.141072 31.880811 23.860324
2006-03-30 07:43:55 51°25.671 2°54.146 -999 3.140659 31.879768 23.860324
2006-03-30 07:44:00 51°25.688 2°54.146 -999 3.140141 31.87576 23.826614
2006-03-30 07:44:05 51°25.705 2°54.155 -999 3.140141 31.87576 23.826614
2006-03-30 07:44:10 51°25.722 2°54.156 -999 3.140659 31.883375 23.826614
2006-03-30 07:44:15 51°25.739 2°54.164 -999 3.142314 31.901072 23.826614
2006-03-30 07:44:20 51°25.755 2°54.168 -999 3.141486 31.892675 23.826614
2006-03-30 07:44:25 51°25.772 2°54.176 -999 3.1419 31.898227 23.792905
2006-03-30 07:44:30 51°25.79 2°54.177 -999 3.140555 31.881311 23.792905
2006-03-30 07:44:36 51°25.808 2°54.186 -999 3.142107 31.900552 23.792905
2006-03-30 07:44:40 51°25.821 2°54.19 -999 3.142107 31.900552 23.792905
2006-03-30 07:44:45 51°25.838 2°54.196 -999 3.142935 31.913463 23.759195
2006-03-30 07:44:50 51°25.855 2°54.199 -999 3.141486 31.903504 23.759195
2006-03-30 07:44:55 51°25.872 2°54.208 -999 3.142625 31.918102 23.759195
2006-03-30 07:45:00 51°25.889 2°54.209 -999 3.143038 31.922754 23.725486
2006-03-30 07:45:05 51°25.905 2°54.216 -999 3.142625 31.919909 23.725486
2006-03-30 07:45:10 51°25.922 2°54.221 -999 3.142625 31.919909 23.725486
2006-03-30 07:45:15 51°25.939 2°54.225 -999 3.142521 31.923263 23.691777
2006-03-30 07:45:20 51°25.956 2°54.23 -999 3.142832 31.932176 23.691777
2006-03-30 07:45:25 51°25.973 2°54.231 -999 3.140762 31.912522 23.691777
2006-03-30 07:45:30 51°25.989 2°54.239 -999 3.140659 31.911359 23.658067
2006-03-30 07:45:35 51°26.007 2°54.24 -999 3.14159 31.924542 23.658067
2006-03-30 07:45:40 51°26.023 2°54.251 -999 3.14159 31.924542 23.658067
2006-03-30 07:45:45 51°26.04 2°54.249 -999 3.144901 31.966305 23.691777
2006-03-30 07:45:50 51°26.056 2°54.255 -999 3.140762 31.919753 23.658067
2006-03-30 07:45:55 51°26.072 2°54.258 -999 3.139211 31.901395 23.658067
2006-03-30 07:46:00 51°26.089 2°54.263 -999 3.143246 31.945873 23.624358
2006-03-30 07:46:05 51°26.106 2°54.267 -999 3.139831 31.908376 23.658067
2006-03-30 07:46:10 51°26.121 2°54.274 -999 3.139831 31.908376 23.658067
2006-03-30 07:46:15 51°26.138 2°54.277 -999 3.142935 31.946001 23.624358
2006-03-30 07:46:20 51°26.154 2°54.283 -999 3.140142 31.915482 23.658067
2006-03-30 07:46:26 51°26.173 2°54.289 -999 3.138693 31.897383 23.624358
2006-03-30 07:46:30 51°26.186 2°54.295 -999 3.140866 31.917301 23.624358
2006-03-30 07:46:35 51°26.203 2°54.299 -999 3.137969 31.885626 23.590648
2006-03-30 07:46:40 51°26.219 2°54.308 -999 3.137969 31.885626 23.590648
2006-03-30 07:46:45 51°26.236 2°54.31 -999 3.137659 31.886651 23.556939
2006-03-30 07:46:50 51°26.252 2°54.322 -999 3.134245 31.852767 23.556939
2006-03-30 07:46:55 51°26.269 2°54.321 -999 3.131968 31.83258 23.52323
2006-03-30 07:47:00 51°26.284 2°54.332 -999 3.135486 31.873953 23.48952
2006-03-30 07:47:05 51°26.3 2°54.335 -999 3.135383 31.875498 23.48952
2006-03-30 07:47:10 51°26.316 2°54.344 -999 3.135383 31.875498 23.48952
2006-03-30 07:47:15 51°26.332 2°54.348 -999 3.135176 31.87317 23.48952
2006-03-30 07:47:20 51°26.348 2°54.356 -999 3.13559 31.875117 23.48952
2006-03-30 07:47:25 51°26.364 2°54.362 -999 3.134245 31.855474 23.48952
2006-03-30 07:47:30 51°26.38 2°54.367 -999 3.138486 31.904996 23.48952
2006-03-30 07:47:35 51°26.396 2°54.374 -999 3.132175 31.839418 23.52323
2006-03-30 07:47:40 51°26.413 2°54.38 -999 3.132175 31.839418 23.52323
2006-03-30 07:47:45 51°26.43 2°54.385 -999 3.13559 31.883247 23.48952
2006-03-30 07:47:50 51°26.446 2°54.394 -999 3.134348 31.87289 23.52323
2006-03-30 07:47:55 51°26.464 2°54.395 -999 3.13321 31.863697 23.52323
2006-03-30 07:48:00 51°26.481 2°54.401 -999 3.134038 31.875722 23.556939
2006-03-30 07:48:06 51°26.5 2°54.403 -999 3.128968 31.818671 23.556939
2006-03-30 07:48:10 51°26.512 2°54.41 -999 3.128968 31.818671 23.556939
2006-03-30 07:48:15 51°26.529 2°54.414 -999 3.137142 31.910659 23.52323
2006-03-30 07:48:20 51°26.546 2°54.419 -999 3.130727 31.838463 23.52323
2006-03-30 07:48:24 51°26.558 2°54.423 -999 3.130934 31.845305 23.52323
2006-03-30 07:48:30 51°26.578 2°54.432 -999 3.129589 31.831973 23.52323
2006-03-30 07:48:35 51°26.595 2°54.434 -999 3.128244 31.816836 23.52323
2006-03-30 07:48:40 51°26.611 2°54.444 -999 3.128244 31.816836 23.52323
2006-03-30 07:48:45 51°26.628 2°54.445 -999 3.129072 31.825249 23.52323
2006-03-30 07:48:50 51°26.643 2°54.455 -999 3.132693 31.864198 23.48952
2006-03-30 07:48:55 51°26.659 2°54.456 -999 3.125347 31.785138 23.48952
2006-03-30 07:49:00 51°26.675 2°54.467 -999 3.133521 31.878938 23.48952
2006-03-30 07:49:05 51°26.691 2°54.467 -999 3.129175 31.832731 23.455811
2006-03-30 07:49:10 51°26.706 2°54.479 -999 3.129175 31.832731 23.455811
2006-03-30 07:49:15 51°26.723 2°54.477 -999 3.127106 31.810343 23.455811
2006-03-30 07:49:20 51°26.738 2°54.487 -999 3.128244 31.823153 23.455811
2006-03-30 07:49:25 51°26.754 2°54.492 -999 3.129175 31.837246 23.455811
2006-03-30 07:49:30 51°26.769 2°54.5 -999 3.128037 31.828948 23.422101
2006-03-30 07:49:35 51°26.785 2°54.508 -999 3.128141 31.82921 23.422101
2006-03-30 07:49:40 51°26.801 2°54.51 -999 3.128141 31.82921 23.422101
2006-03-30 07:49:45 51°26.816 2°54.521 -999 3.128451 31.82819 23.388392
2006-03-30 07:49:50 51°26.833 2°54.522 -999 3.125968 31.80475 23.354683
2006-03-30 07:49:55 51°26.848 2°54.533 -999 3.12721 31.829563 23.354683
2006-03-30 07:50:00 51°26.864 2°54.536 -999 3.129693 31.867478 23.354683
2006-03-30 07:50:05 51°26.88 2°54.544 -999 3.124003 31.806082 23.320973
2006-03-30 07:50:10 51°26.896 2°54.548 -999 3.124003 31.806082 23.320973
2006-03-30 07:50:15 51°26.912 2°54.557 -999 3.126796 31.833937 23.320973
2006-03-30 07:50:20 51°26.929 2°54.558 -999 3.126693 31.833675 23.287264
2006-03-30 07:50:26 51°26.947 2°54.568 -999 3.131762 31.896227 23.287264
2006-03-30 07:50:30 51°26.96 2°54.571 -999 3.129072 31.873152 23.287264
2006-03-30 07:50:35 51°26.976 2°54.58 -999 3.122451 31.803048 23.287264
2006-03-30 07:50:40 51°26.992 2°54.585 -999 3.122451 31.803048 23.287264
2006-03-30 07:50:45 51°27.009 2°54.592 -999 3.130004 31.8918 23.287264
2006-03-30 07:50:50 51°27.024 2°54.597 -999 3.127417 31.860829 23.287264
2006-03-30 07:50:55 51°27.04 2°54.606 -999 3.125038 31.835815 23.287264
2006-03-30 07:51:00 51°27.056 2°54.611 -999 3.123072 31.814562 23.287264
2006-03-30 07:51:05 51°27.072 2°54.616 -999 3.123072 31.814562 23.287264
2006-03-30 07:51:10 51°27.087 2°54.622 -999 3.131349 31.911498 23.287264
2006-03-30 07:51:15 51°27.103 2°54.63 -999 3.126176 31.855884 23.253554
2006-03-30 07:51:20 51°27.119 2°54.634 -999 3.13228 31.929257 23.253554
2006-03-30 07:51:25 51°27.135 2°54.641 -999 3.128142 31.886204 23.253554
2006-03-30 07:51:30 51°27.15 2°54.647 -999 3.127417 31.873506 23.253554
2006-03-30 07:51:35 51°27.166 2°54.655 -999 3.1269 31.867672 23.253554
2006-03-30 07:51:40 51°27.183 2°54.656 -999 3.1269 31.867672 23.253554
2006-03-30 07:51:45 51°27.198 2°54.666 -999 3.127417 31.87713 23.219845
2006-03-30 07:51:50 51°27.215 2°54.669 -999 3.127831 31.886329 23.219845
2006-03-30 07:51:55 51°27.231 2°54.677 -999 3.124831 31.85792 23.186136
2006-03-30 07:52:00 51°27.247 2°54.681 -999 3.123589 31.845727 23.186136
2006-03-30 07:52:05 51°27.263 2°54.689 -999 3.1269 31.88217 23.186136
2006-03-30 07:52:10 51°27.28 2°54.692 -999 3.1269 31.88217 23.186136
2006-03-30 07:52:15 51°27.296 2°54.701 -999 3.127521 31.88736 23.186136
2006-03-30 07:52:20 51°27.313 2°54.703 -999 3.127935 31.896564 23.186136
2006-03-30 07:52:25 51°27.329 2°54.711 -999 3.128762 31.908626 23.152426
2006-03-30 07:52:30 51°27.346 2°54.715 -999 3.128969 31.910053 23.152426
2006-03-30 07:52:35 51°27.362 2°54.723 -999 3.128452 31.904216 23.118717
2006-03-30 07:52:40 51°27.379 2°54.723 -999 3.128452 31.904216 23.118717
2006-03-30 07:52:45 51°27.396 2°54.734 -999 3.131763 31.937946 23.118717
2006-03-30 07:52:50 51°27.413 2°54.734 -999 3.124831 31.858826 23.118717
2006-03-30 07:52:55 51°27.428 2°54.744 -999 3.130935 31.933146 23.085007
2006-03-30 07:53:00 51°27.445 2°54.746 -999 3.129073 31.914851 23.085007
2006-03-30 07:53:06 51°27.464 2°54.754 -999 3.128969 31.910961 23.051298
2006-03-30 07:53:10 51°27.477 2°54.759 -999 3.128969 31.910961 23.051298
2006-03-30 07:53:15 51°27.493 2°54.764 -999 3.133211 31.952475 23.152426
2006-03-30 07:53:20 51°27.509 2°54.769 -999 3.131349 31.928736 23.051298
2006-03-30 07:53:25 51°27.526 2°54.777 -999 3.135073 31.974402 23.051298
2006-03-30 07:53:30 51°27.543 2°54.779 -999 3.132487 31.948845 23.051298
2006-03-30 07:53:35 51°27.559 2°54.787 -999 3.134556 31.977657 23.051298
2006-03-30 07:53:40 51°27.576 2°54.79 -999 3.134556 31.977657 23.051298
2006-03-30 07:53:45 51°27.592 2°54.798 -999 3.135074 31.983497 23.051298
2006-03-30 07:53:50 51°27.608 2°54.802 -999 3.134556 31.983115 23.085007
2006-03-30 07:53:55 51°27.624 2°54.809 -999 3.135694 32.00325 23.085007
2006-03-30 07:54:00 51°27.641 2°54.814 -999 3.135798 32.013528 23.152426
2006-03-30 07:54:05 51°27.657 2°54.818 -999 3.135902 32.023813 23.152426
2006-03-30 07:54:10 51°27.673 2°54.825 -999 3.135902 32.023813 23.152426
2006-03-30 07:54:15 51°27.689 2°54.829 -999 3.135902 32.035672 23.186136
2006-03-30 07:54:20 51°27.705 2°54.836 -999 3.136936 32.060155 23.186136
2006-03-30 07:54:25 51°27.72 2°54.841 -999 3.136523 32.067354 23.186136
2006-03-30 07:54:30 51°27.736 2°54.85 -999 3.137971 32.093809 23.186136
2006-03-30 07:54:35 51°27.753 2°54.853 -999 3.134247 32.057139 23.186136
2006-03-30 07:54:40 51°27.768 2°54.86 -999 3.134247 32.057139 23.186136
2006-03-30 07:54:45 51°27.785 2°54.866 -999 3.131453 32.027349 23.152426
2006-03-30 07:54:50 51°27.802 2°54.872 -999 3.130626 32.02529 23.152426
2006-03-30 07:54:55 51°27.818 2°54.874 -999 3.132488 32.05186 23.152426
2006-03-30 07:55:00 51°27.834 2°54.881 -999 3.132592 32.058521 23.152426
2006-03-30 07:55:05 51°27.85 2°54.885 -999 3.130109 32.034059 23.152426
2006-03-30 07:55:10 51°27.866 2°54.893 -999 3.130109 32.034059 23.152426
2006-03-30 07:55:15 51°27.882 2°54.896 -999 3.133109 32.075366 23.118717
2006-03-30 07:55:20 51°27.899 2°54.903 -999 3.130523 32.04881 23.118717
2006-03-30 07:55:24 51°27.912 2°54.904 -999 3.125453 31.989556 23.085007